Time,TemperatureF,DewpointF,PressureIn,WindDirection,WindDirectionDegrees,WindSpeedMPH,WindSpeedGustMPH,Humidity,HourlyPrecipIn,Conditions,Clouds,dailyrainin,SolarRadiationWatts/m^2,SoftwareType,DateUTC
2013-03-28 00:00:00,23.5,20.5,30.41,NW,323,0.0,0.0,88,0.00,,,0.00,0,Wunderground v.1.15,2013-03-28 05:00:00,
2013-03-28 00:05:00,23.4,20.4,30.41,NW,323,0.0,0.0,88,0.00,,,0.00,0,Wunderground v.1.15,2013-03-28 05:05:00,
2013-03-28 00:07:00,23.4,20.4,30.41,NW,323,0.0,0.0,88,0.00,,,0.00,0,Wunderground v.1.15,2013-03-28 05:07:00,
2013-03-28 00:08:00,23.4,20.4,30.41,NW,323,0.0,0.0,88,0.00,,,0.00,0,Wunderground v.1.15,2013-03-28 05:08:00,
2013-03-28 00:13:00,23.2,20.2,30.42,NW,323,0.0,0.0,88,0.00,,,0.00,0,Wunderground v.1.15,2013-03-28 05:13:00,
2013-03-28 00:15:00,23.0,20.0,30.42,NW,323,0.0,0.0,88,0.00,,,0.00,0,Wunderground v.1.15,2013-03-28 05:15:00,
2013-03-28 00:19:00,23.0,20.0,30.42,NW,323,0.0,0.0,88,0.00,,,0.00,0,Wunderground v.1.15,2013-03-28 05:19:00,
2013-03-28 00:22:00,23.0,20.0,30.42,NW,323,0.0,0.0,88,0.00,,,0.00,0,Wunderground v.1.15,2013-03-28 05:22:00,
2013-03-28 00:23:00,22.9,20.1,30.42,NW,323,0.0,0.0,89,0.00,,,0.00,0,Wunderground v.1.15,2013-03-28 05:23:00,
2013-03-28 00:26:00,22.9,20.1,30.42,NW,323,0.0,0.0,89,0.00,,,0.00,0,Wunderground v.1.15,2013-03-28 05:26:00,
2013-03-28 00:28:00,22.8,19.8,30.42,NW,323,0.0,0.0,88,0.00,,,0.00,0,Wunderground v.1.15,2013-03-28 05:28:00,
2013-03-28 00:31:00,22.7,19.7,30.42,NW,323,0.0,0.0,88,0.00,,,0.00,0,Wunderground v.1.15,2013-03-28 05:31:00,
2013-03-28 00:32:00,22.7,19.7,30.42,NW,323,0.0,0.0,88,0.00,,,0.00,0,Wunderground v.1.15,2013-03-28 05:32:00,
2013-03-28 00:37:00,22.5,19.5,30.42,NW,323,0.0,0.0,88,0.00,,,0.00,0,Wunderground v.1.15,2013-03-28 05:37:00,
2013-03-28 00:40:00,22.5,19.5,30.42,NW,323,0.0,0.0,88,0.00,,,0.00,0,Wunderground v.1.15,2013-03-28 05:40:00,
2013-03-28 00:43:00,22.4,19.4,30.42,NW,323,0.0,0.0,88,0.00,,,0.00,0,Wunderground v.1.15,2013-03-28 05:43:00,
2013-03-28 00:46:00,22.4,19.4,30.42,NW,323,0.0,0.0,88,0.00,,,0.00,0,Wunderground v.1.15,2013-03-28 05:46:00,
2013-03-28 00:48:00,22.2,19.2,30.42,NW,323,0.0,0.0,88,0.00,,,0.00,0,Wunderground v.1.15,2013-03-28 05:48:00,
2013-03-28 00:51:00,22.1,19.1,30.42,NW,323,0.0,0.0,88,0.00,,,0.00,0,Wunderground v.1.15,2013-03-28 05:51:00,
2013-03-28 00:52:00,22.1,19.1,30.42,NW,323,0.0,0.0,88,0.00,,,0.00,0,Wunderground v.1.15,2013-03-28 05:52:00,
2013-03-28 00:53:00,22.1,19.1,30.42,NW,323,0.0,0.0,88,0.00,,,0.00,0,Wunderground v.1.15,2013-03-28 05:53:00,
2013-03-28 00:56:00,22.2,19.5,30.42,NW,323,0.0,0.0,89,0.00,,,0.00,0,Wunderground v.1.15,2013-03-28 05:56:00,
2013-03-28 00:59:00,21.9,18.9,30.42,NW,323,0.0,0.0,88,0.00,,,0.00,0,Wunderground v.1.15,2013-03-28 05:59:00,
2013-03-28 01:01:00,21.7,18.7,30.42,NW,323,0.0,0.0,88,0.00,,,0.00,0,Wunderground v.1.15,2013-03-28 06:01:00,
2013-03-28 01:04:00,21.7,18.7,30.42,NW,323,0.0,0.0,88,0.00,,,0.00,0,Wunderground v.1.15,2013-03-28 06:04:00,
2013-03-28 01:06:00,21.7,18.7,30.42,NW,323,0.0,0.0,88,0.00,,,0.00,0,Wunderground v.1.15,2013-03-28 06:06:00,
2013-03-28 01:08:00,21.6,18.6,30.42,NW,323,0.0,0.0,88,0.00,,,0.00,0,Wunderground v.1.15,2013-03-28 06:08:00,
2013-03-28 01:11:00,21.5,18.8,30.42,NW,323,0.0,0.0,89,0.00,,,0.00,0,Wunderground v.1.15,2013-03-28 06:11:00,
2013-03-28 01:13:00,21.5,18.8,30.42,NW,323,0.0,0.0,89,0.00,,,0.00,0,Wunderground v.1.15,2013-03-28 06:13:00,
2013-03-28 01:15:00,21.5,18.8,30.42,NW,323,0.0,0.0,89,0.00,,,0.00,0,Wunderground v.1.15,2013-03-28 06:15:00,
2013-03-28 01:17:00,21.4,18.7,30.42,NW,323,0.0,0.0,89,0.00,,,0.00,0,Wunderground v.1.15,2013-03-28 06:17:00,
2013-03-28 01:18:00,21.3,18.6,30.42,NW,323,0.0,0.0,89,0.00,,,0.00,0,Wunderground v.1.15,2013-03-28 06:18:00,
2013-03-28 01:19:00,21.3,18.6,30.42,NW,323,0.0,0.0,89,0.00,,,0.00,0,Wunderground v.1.15,2013-03-28 06:19:00,
2013-03-28 01:23:00,21.3,18.6,30.42,NW,323,0.0,0.0,89,0.00,,,0.00,0,Wunderground v.1.15,2013-03-28 06:23:00,
2013-03-28 01:24:00,21.3,18.6,30.42,NW,323,0.0,0.0,89,0.00,,,0.00,0,Wunderground v.1.15,2013-03-28 06:24:00,
2013-03-28 01:28:00,21.3,18.6,30.42,NW,323,0.0,0.0,89,0.00,,,0.00,0,Wunderground v.1.15,2013-03-28 06:28:00,
2013-03-28 01:29:00,21.3,18.6,30.42,NW,323,0.0,0.0,89,0.00,,,0.00,0,Wunderground v.1.15,2013-03-28 06:29:00,
2013-03-28 01:33:00,21.3,18.8,30.42,NW,323,0.0,0.0,90,0.00,,,0.00,0,Wunderground v.1.15,2013-03-28 06:33:00,
2013-03-28 01:34:00,21.3,18.8,30.42,NW,323,0.0,0.0,90,0.00,,,0.00,0,Wunderground v.1.15,2013-03-28 06:34:00,
2013-03-28 01:36:00,21.2,18.7,30.42,NW,323,0.0,0.0,90,0.00,,,0.00,0,Wunderground v.1.15,2013-03-28 06:36:00,
2013-03-28 01:39:00,21.1,18.6,30.42,NW,323,0.0,0.0,90,0.00,,,0.00,0,Wunderground v.1.15,2013-03-28 06:39:00,
2013-03-28 01:40:00,21.1,18.6,30.42,NW,323,0.0,0.0,90,0.00,,,0.00,0,Wunderground v.1.15,2013-03-28 06:40:00,
2013-03-28 01:43:00,21.0,18.5,30.42,NW,323,0.0,0.0,90,0.00,,,0.00,0,Wunderground v.1.15,2013-03-28 06:43:00,
2013-03-28 01:45:00,20.9,18.4,30.42,NW,323,0.0,0.0,90,0.00,,,0.00,0,Wunderground v.1.15,2013-03-28 06:45:00,
2013-03-28 01:46:00,20.9,18.4,30.43,NW,323,0.0,0.0,90,0.00,,,0.00,0,Wunderground v.1.15,2013-03-28 06:46:00,
2013-03-28 01:47:00,20.8,18.3,30.42,NW,323,0.0,0.0,90,0.00,,,0.00,0,Wunderground v.1.15,2013-03-28 06:47:00,
2013-03-28 01:50:00,20.7,18.2,30.43,NW,323,0.0,0.0,90,0.00,,,0.00,0,Wunderground v.1.15,2013-03-28 06:50:00,
2013-03-28 01:51:00,20.6,18.1,30.43,NW,323,0.0,0.0,90,0.00,,,0.00,0,Wunderground v.1.15,2013-03-28 06:51:00,
2013-03-28 01:52:00,20.6,18.1,30.43,NW,323,0.0,0.0,90,0.00,,,0.00,0,Wunderground v.1.15,2013-03-28 06:52:00,
2013-03-28 01:53:00,20.6,18.1,30.42,NW,323,0.0,0.0,90,0.00,,,0.00,0,Wunderground v.1.15,2013-03-28 06:53:00,
2013-03-28 01:58:00,20.5,18.0,30.43,NW,323,0.0,0.0,90,0.00,,,0.00,0,Wunderground v.1.15,2013-03-28 06:58:00,
2013-03-28 01:59:00,20.5,18.0,30.43,NW,323,0.0,0.0,90,0.00,,,0.00,0,Wunderground v.1.15,2013-03-28 06:59:00,
2013-03-28 02:02:00,20.6,18.4,30.43,NW,323,0.0,0.0,91,0.00,,,0.00,0,Wunderground v.1.15,2013-03-28 07:02:00,
2013-03-28 02:03:00,20.6,18.4,30.43,NW,323,0.0,0.0,91,0.00,,,0.00,0,Wunderground v.1.15,2013-03-28 07:03:00,
2013-03-28 02:06:00,20.6,18.4,30.43,NW,323,0.0,0.0,91,0.00,,,0.00,0,Wunderground v.1.15,2013-03-28 07:06:00,
2013-03-28 02:07:00,20.6,18.4,30.43,NW,323,0.0,0.0,91,0.00,,,0.00,0,Wunderground v.1.15,2013-03-28 07:07:00,
2013-03-28 02:08:00,20.6,18.4,30.43,NW,323,0.0,0.0,91,0.00,,,0.00,0,Wunderground v.1.15,2013-03-28 07:08:00,
2013-03-28 02:13:00,20.4,17.9,30.43,NW,323,0.0,0.0,90,0.00,,,0.00,0,Wunderground v.1.15,2013-03-28 07:13:00,
2013-03-28 02:14:00,20.3,17.8,30.43,NW,323,0.0,0.0,90,0.00,,,0.00,0,Wunderground v.1.15,2013-03-28 07:14:00,
2013-03-28 02:15:00,20.2,17.7,30.43,NW,323,0.0,0.0,90,0.00,,,0.00,0,Wunderground v.1.15,2013-03-28 07:15:00,
2013-03-28 02:18:00,20.2,18.0,30.43,NW,323,0.0,0.0,91,0.00,,,0.00,0,Wunderground v.1.15,2013-03-28 07:18:00,
2013-03-28 02:20:00,20.2,18.0,30.43,NW,323,0.0,0.0,91,0.00,,,0.00,0,Wunderground v.1.15,2013-03-28 07:20:00,
2013-03-28 02:22:00,20.2,18.0,30.43,NW,323,0.0,0.0,91,0.00,,,0.00,0,Wunderground v.1.15,2013-03-28 07:22:00,
2013-03-28 02:24:00,20.2,18.0,30.43,NW,323,0.0,0.0,91,0.00,,,0.00,0,Wunderground v.1.15,2013-03-28 07:24:00,
2013-03-28 02:27:00,20.2,18.0,30.43,NW,323,0.0,0.0,91,0.00,,,0.00,0,Wunderground v.1.15,2013-03-28 07:27:00,
2013-03-28 02:28:00,20.1,17.9,30.43,NW,323,0.0,0.0,91,0.00,,,0.00,0,Wunderground v.1.15,2013-03-28 07:28:00,
2013-03-28 02:29:00,20.0,17.8,30.43,NW,323,0.0,0.0,91,0.00,,,0.00,0,Wunderground v.1.15,2013-03-28 07:29:00,
2013-03-28 02:32:00,20.0,17.8,30.43,NW,323,0.0,0.0,91,0.00,,,0.00,0,Wunderground v.1.15,2013-03-28 07:32:00,
2013-03-28 02:33:00,20.0,17.8,30.43,NW,323,0.0,0.0,91,0.00,,,0.00,0,Wunderground v.1.15,2013-03-28 07:33:00,
2013-03-28 02:36:00,19.9,17.7,30.43,NW,323,0.0,0.0,91,0.00,,,0.00,0,Wunderground v.1.15,2013-03-28 07:36:00,
2013-03-28 02:38:00,19.8,17.6,30.43,NW,323,0.0,0.0,91,0.00,,,0.00,0,Wunderground v.1.15,2013-03-28 07:38:00,
2013-03-28 02:40:00,19.8,17.6,30.43,NW,323,0.0,0.0,91,0.00,,,0.00,0,Wunderground v.1.15,2013-03-28 07:40:00,
2013-03-28 02:42:00,19.8,17.6,30.43,NW,323,0.0,0.0,91,0.00,,,0.00,0,Wunderground v.1.15,2013-03-28 07:42:00,
2013-03-28 02:44:00,19.8,17.6,30.43,NW,323,0.0,0.0,91,0.00,,,0.00,0,Wunderground v.1.15,2013-03-28 07:44:00,
2013-03-28 02:45:00,19.7,17.5,30.43,NW,323,0.0,0.0,91,0.00,,,0.00,0,Wunderground v.1.15,2013-03-28 07:45:00,
2013-03-28 02:47:00,19.7,17.5,30.43,NW,323,0.0,0.0,91,0.00,,,0.00,0,Wunderground v.1.15,2013-03-28 07:47:00,
2013-03-28 02:50:00,19.6,17.4,30.43,NW,323,0.0,0.0,91,0.00,,,0.00,0,Wunderground v.1.15,2013-03-28 07:50:00,
2013-03-28 02:52:00,19.5,17.3,30.43,NW,323,0.0,0.0,91,0.00,,,0.00,0,Wunderground v.1.15,2013-03-28 07:52:00,
2013-03-28 02:56:00,19.5,17.3,30.43,NW,323,0.0,0.0,91,0.00,,,0.00,0,Wunderground v.1.15,2013-03-28 07:56:00,
2013-03-28 02:57:00,19.5,17.3,30.43,NW,323,0.0,0.0,91,0.00,,,0.00,0,Wunderground v.1.15,2013-03-28 07:57:00,
2013-03-28 02:59:00,19.5,17.3,30.43,NW,323,0.0,0.0,91,0.00,,,0.00,0,Wunderground v.1.15,2013-03-28 07:59:00,
2013-03-28 03:01:00,19.5,17.3,30.43,NW,323,0.0,0.0,91,0.00,,,0.00,0,Wunderground v.1.15,2013-03-28 08:01:00,
2013-03-28 03:03:00,19.5,17.3,30.43,NW,323,0.0,0.0,91,0.00,,,0.00,0,Wunderground v.1.15,2013-03-28 08:03:00,
2013-03-28 03:05:00,19.5,17.3,30.43,NW,323,0.0,0.0,91,0.00,,,0.00,0,Wunderground v.1.15,2013-03-28 08:05:00,
2013-03-28 03:06:00,19.4,17.2,30.43,NW,323,0.0,0.0,91,0.00,,,0.00,0,Wunderground v.1.15,2013-03-28 08:06:00,
2013-03-28 03:10:00,19.3,17.1,30.43,NW,323,0.0,0.0,91,0.00,,,0.00,0,Wunderground v.1.15,2013-03-28 08:10:00,
2013-03-28 03:11:00,19.2,17.0,30.43,NW,323,0.0,0.0,91,0.00,,,0.00,0,Wunderground v.1.15,2013-03-28 08:11:00,
2013-03-28 03:14:00,19.1,16.9,30.43,NW,323,0.0,0.0,91,0.00,,,0.00,0,Wunderground v.1.15,2013-03-28 08:14:00,
2013-03-28 03:16:00,19.1,16.9,30.43,NW,323,0.0,0.0,91,0.00,,,0.00,0,Wunderground v.1.15,2013-03-28 08:16:00,
2013-03-28 03:18:00,19.1,16.9,30.43,NW,323,0.0,0.0,91,0.00,,,0.00,0,Wunderground v.1.15,2013-03-28 08:18:00,
2013-03-28 03:19:00,19.1,16.9,30.43,NW,323,0.0,0.0,91,0.00,,,0.00,0,Wunderground v.1.15,2013-03-28 08:19:00,
2013-03-28 03:20:00,19.0,16.8,30.43,NW,323,0.0,0.0,91,0.00,,,0.00,0,Wunderground v.1.15,2013-03-28 08:20:00,
2013-03-28 03:24:00,18.9,16.7,30.43,NW,323,0.0,0.0,91,0.00,,,0.00,0,Wunderground v.1.15,2013-03-28 08:24:00,
2013-03-28 03:25:00,18.9,16.7,30.43,NW,323,0.0,0.0,91,0.00,,,0.00,0,Wunderground v.1.15,2013-03-28 08:25:00,
2013-03-28 03:27:00,18.8,16.6,30.43,NW,323,0.0,0.0,91,0.00,,,0.00,0,Wunderground v.1.15,2013-03-28 08:27:00,
2013-03-28 03:29:00,18.8,16.6,30.43,NW,323,0.0,0.0,91,0.00,,,0.00,0,Wunderground v.1.15,2013-03-28 08:29:00,
2013-03-28 03:33:00,18.8,16.6,30.43,NW,323,0.0,0.0,91,0.00,,,0.00,0,Wunderground v.1.15,2013-03-28 08:33:00,
2013-03-28 03:34:00,18.8,16.6,30.43,NW,323,0.0,0.0,91,0.00,,,0.00,0,Wunderground v.1.15,2013-03-28 08:34:00,
2013-03-28 03:36:00,18.7,16.5,30.43,NW,323,0.0,0.0,91,0.00,,,0.00,0,Wunderground v.1.15,2013-03-28 08:36:00,
2013-03-28 03:38:00,18.8,16.6,30.42,NW,323,0.0,0.0,91,0.00,,,0.00,0,Wunderground v.1.15,2013-03-28 08:38:00,
2013-03-28 03:40:00,18.8,16.9,30.43,NW,323,0.0,0.0,92,0.00,,,0.00,0,Wunderground v.1.15,2013-03-28 08:40:00,
2013-03-28 03:44:00,18.7,16.5,30.43,NW,323,0.0,0.0,91,0.00,,,0.00,0,Wunderground v.1.15,2013-03-28 08:44:00,
2013-03-28 03:46:00,18.6,16.4,30.43,NW,323,0.0,0.0,91,0.00,,,0.00,0,Wunderground v.1.15,2013-03-28 08:46:00,
2013-03-28 03:47:00,18.6,16.4,30.43,NW,323,0.0,0.0,91,0.00,,,0.00,0,Wunderground v.1.15,2013-03-28 08:47:00,
2013-03-28 03:50:00,18.5,16.6,30.43,NW,323,0.0,0.0,92,0.00,,,0.00,0,Wunderground v.1.15,2013-03-28 08:50:00,
2013-03-28 03:53:00,18.4,16.5,30.43,NW,323,0.0,0.0,92,0.00,,,0.00,0,Wunderground v.1.15,2013-03-28 08:53:00,
2013-03-28 03:55:00,18.5,16.6,30.43,NW,323,0.0,0.0,92,0.00,,,0.00,0,Wunderground v.1.15,2013-03-28 08:55:00,
2013-03-28 03:57:00,18.5,16.6,30.43,NW,323,0.0,0.0,92,0.00,,,0.00,0,Wunderground v.1.15,2013-03-28 08:57:00,
2013-03-28 03:59:00,18.5,18.5,30.43,NW,323,0.0,0.0,100,0.00,,,0.00,0,Wunderground v.1.15,2013-03-28 08:59:00,
2013-03-28 04:01:00,18.5,16.6,30.43,NW,323,0.0,0.0,92,0.00,,,0.00,0,Wunderground v.1.15,2013-03-28 09:01:00,
2013-03-28 04:05:00,18.2,16.0,30.43,NW,323,0.0,0.0,91,0.00,,,0.00,0,Wunderground v.1.15,2013-03-28 09:05:00,
2013-03-28 04:06:00,18.1,15.9,30.43,NW,323,0.0,0.0,91,0.00,,,0.00,0,Wunderground v.1.15,2013-03-28 09:06:00,
2013-03-28 04:08:00,18.1,15.9,30.43,NW,323,0.0,0.0,91,0.00,,,0.00,0,Wunderground v.1.15,2013-03-28 09:08:00,
2013-03-28 04:12:00,18.2,16.0,30.43,NW,323,0.0,0.0,91,0.00,,,0.00,0,Wunderground v.1.15,2013-03-28 09:12:00,
2013-03-28 04:13:00,18.2,16.3,30.43,NW,323,0.0,0.0,92,0.00,,,0.00,0,Wunderground v.1.15,2013-03-28 09:13:00,
2013-03-28 04:18:00,18.1,15.9,30.43,NW,323,0.0,0.0,91,0.00,,,0.00,0,Wunderground v.1.15,2013-03-28 09:18:00,
2013-03-28 04:19:00,18.1,15.9,30.43,NW,323,0.0,0.0,91,0.00,,,0.00,0,Wunderground v.1.15,2013-03-28 09:19:00,
2013-03-28 04:24:00,18.1,16.2,30.43,NW,323,0.0,0.0,92,0.00,,,0.00,0,Wunderground v.1.15,2013-03-28 09:24:00,
2013-03-28 04:26:00,18.1,15.9,30.43,NW,323,0.0,0.0,91,0.00,,,0.00,0,Wunderground v.1.15,2013-03-28 09:26:00,
2013-03-28 04:30:00,17.9,15.7,30.43,NW,323,0.0,0.0,91,0.00,,,0.00,0,Wunderground v.1.15,2013-03-28 09:30:00,
2013-03-28 04:31:00,17.9,15.7,30.43,NW,323,0.0,0.0,91,0.00,,,0.00,0,Wunderground v.1.15,2013-03-28 09:31:00,
2013-03-28 04:33:00,17.9,16.0,30.43,NW,323,0.0,0.0,92,0.00,,,0.00,0,Wunderground v.1.15,2013-03-28 09:33:00,
2013-03-28 04:36:00,17.9,16.0,30.43,NW,323,0.0,0.0,92,0.00,,,0.00,0,Wunderground v.1.15,2013-03-28 09:36:00,
2013-03-28 04:37:00,17.8,15.9,30.43,NW,323,0.0,0.0,92,0.00,,,0.00,0,Wunderground v.1.15,2013-03-28 09:37:00,
2013-03-28 04:38:00,17.8,15.9,30.43,NW,323,0.0,0.0,92,0.00,,,0.00,0,Wunderground v.1.15,2013-03-28 09:38:00,
2013-03-28 04:41:00,17.7,15.5,30.43,NW,323,0.0,0.0,91,0.00,,,0.00,0,Wunderground v.1.15,2013-03-28 09:41:00,
2013-03-28 04:44:00,17.7,15.8,30.43,NW,323,0.0,0.0,92,0.00,,,0.00,0,Wunderground v.1.15,2013-03-28 09:44:00,
2013-03-28 04:45:00,17.7,15.5,30.43,NW,323,0.0,0.0,91,0.00,,,0.00,0,Wunderground v.1.15,2013-03-28 09:45:00,
2013-03-28 04:47:00,17.7,15.5,30.43,NW,323,0.0,0.0,91,0.00,,,0.00,0,Wunderground v.1.15,2013-03-28 09:47:00,
2013-03-28 04:49:00,17.7,15.5,30.43,NW,323,0.0,0.0,91,0.00,,,0.00,0,Wunderground v.1.15,2013-03-28 09:49:00,
2013-03-28 04:50:00,17.7,15.5,30.43,NW,323,0.0,0.0,91,0.00,,,0.00,0,Wunderground v.1.15,2013-03-28 09:50:00,
2013-03-28 04:53:00,17.6,15.4,30.43,NW,323,0.0,0.0,91,0.00,,,0.00,0,Wunderground v.1.15,2013-03-28 09:53:00,
2013-03-28 04:56:00,17.6,15.4,30.43,NW,323,0.0,0.0,91,0.00,,,0.00,0,Wunderground v.1.15,2013-03-28 09:56:00,
2013-03-28 04:59:00,17.6,15.4,30.43,NW,323,0.0,0.0,91,0.00,,,0.00,0,Wunderground v.1.15,2013-03-28 09:59:00,
2013-03-28 05:01:00,17.6,15.4,30.43,NW,323,0.0,0.0,91,0.00,,,0.00,0,Wunderground v.1.15,2013-03-28 10:01:00,
2013-03-28 05:03:00,17.5,15.6,30.43,NW,323,0.0,0.0,92,0.00,,,0.00,0,Wunderground v.1.15,2013-03-28 10:03:00,
2013-03-28 05:07:00,17.4,15.2,30.43,NW,323,0.0,0.0,91,0.00,,,0.00,0,Wunderground v.1.15,2013-03-28 10:07:00,
2013-03-28 05:08:00,17.4,15.2,30.43,NW,323,0.0,0.0,91,0.00,,,0.00,0,Wunderground v.1.15,2013-03-28 10:08:00,
2013-03-28 05:09:00,17.4,15.2,30.43,NW,323,0.0,0.0,91,0.00,,,0.00,0,Wunderground v.1.15,2013-03-28 10:09:00,
2013-03-28 05:13:00,17.4,15.5,30.43,NW,323,0.0,0.0,92,0.00,,,0.00,0,Wunderground v.1.15,2013-03-28 10:13:00,
2013-03-28 05:15:00,17.3,15.4,30.43,NW,323,0.0,0.0,92,0.00,,,0.00,0,Wunderground v.1.15,2013-03-28 10:15:00,
2013-03-28 05:20:00,17.3,15.4,30.43,NW,323,0.0,0.0,92,0.00,,,0.00,0,Wunderground v.1.15,2013-03-28 10:20:00,
2013-03-28 05:21:00,17.3,15.4,30.43,NW,323,0.0,0.0,92,0.00,,,0.00,0,Wunderground v.1.15,2013-03-28 10:21:00,
2013-03-28 05:23:00,17.2,15.3,30.43,NW,323,0.0,0.0,92,0.00,,,0.00,0,Wunderground v.1.15,2013-03-28 10:23:00,
2013-03-28 05:24:00,17.2,15.3,30.43,NW,323,0.0,0.0,92,0.00,,,0.00,0,Wunderground v.1.15,2013-03-28 10:24:00,
2013-03-28 05:27:00,17.1,14.9,30.43,NW,323,0.0,0.0,91,0.00,,,0.00,0,Wunderground v.1.15,2013-03-28 10:27:00,
2013-03-28 05:30:00,17.1,14.9,30.43,NW,323,0.0,0.0,91,0.00,,,0.00,0,Wunderground v.1.15,2013-03-28 10:30:00,
2013-03-28 05:33:00,17.1,14.9,30.43,NW,323,0.0,0.0,91,0.00,,,0.00,0,Wunderground v.1.15,2013-03-28 10:33:00,
2013-03-28 05:34:00,17.0,14.8,30.43,NW,323,0.0,0.0,91,0.00,,,0.00,0,Wunderground v.1.15,2013-03-28 10:34:00,
2013-03-28 05:35:00,17.1,14.9,30.43,NW,323,0.0,0.0,91,0.00,,,0.00,0,Wunderground v.1.15,2013-03-28 10:35:00,
2013-03-28 05:36:00,17.1,14.9,30.43,NW,323,0.0,0.0,91,0.00,,,0.00,0,Wunderground v.1.15,2013-03-28 10:36:00,
2013-03-28 05:40:00,17.1,14.9,30.43,NW,323,0.0,0.0,91,0.00,,,0.00,0,Wunderground v.1.15,2013-03-28 10:40:00,
2013-03-28 05:42:00,17.1,14.9,30.43,NW,323,0.0,0.0,91,0.00,,,0.00,0,Wunderground v.1.15,2013-03-28 10:42:00,
2013-03-28 05:45:00,17.0,14.8,30.43,NW,323,0.0,0.0,91,0.00,,,0.00,0,Wunderground v.1.15,2013-03-28 10:45:00,
2013-03-28 05:46:00,17.0,14.8,30.44,NW,323,0.0,0.0,91,0.00,,,0.00,0,Wunderground v.1.15,2013-03-28 10:46:00,
2013-03-28 05:47:00,16.9,14.7,30.43,NW,323,0.0,0.0,91,0.00,,,0.00,0,Wunderground v.1.15,2013-03-28 10:47:00,
2013-03-28 05:52:00,16.8,14.6,30.43,NW,323,0.0,0.0,91,0.00,,,0.00,0,Wunderground v.1.15,2013-03-28 10:52:00,
2013-03-28 05:53:00,16.8,14.6,30.43,NW,323,0.0,0.0,91,0.00,,,0.00,0,Wunderground v.1.15,2013-03-28 10:53:00,
2013-03-28 05:54:00,16.8,14.6,30.43,NW,323,0.0,0.0,91,0.00,,,0.00,0,Wunderground v.1.15,2013-03-28 10:54:00,
2013-03-28 05:55:00,16.8,14.6,30.44,NW,323,0.0,0.0,91,0.00,,,0.00,0,Wunderground v.1.15,2013-03-28 10:55:00,
2013-03-28 06:00:00,16.6,14.4,30.44,NW,323,0.0,0.0,91,0.00,,,0.00,0,Wunderground v.1.15,2013-03-28 11:00:00,
2013-03-28 06:01:00,16.6,14.4,30.43,NW,323,0.0,0.0,91,0.00,,,0.00,0,Wunderground v.1.15,2013-03-28 11:01:00,
2013-03-28 06:02:00,16.6,14.4,30.44,NW,323,0.0,0.0,91,0.00,,,0.00,0,Wunderground v.1.15,2013-03-28 11:02:00,
2013-03-28 06:03:00,16.6,14.4,30.44,NW,323,0.0,0.0,91,0.00,,,0.00,0,Wunderground v.1.15,2013-03-28 11:03:00,
2013-03-28 06:07:00,16.5,14.3,30.44,NW,323,0.0,0.0,91,0.00,,,0.00,0,Wunderground v.1.15,2013-03-28 11:07:00,
2013-03-28 06:08:00,16.6,14.4,30.44,NW,323,0.0,0.0,91,0.00,,,0.00,0,Wunderground v.1.15,2013-03-28 11:08:00,
2013-03-28 06:11:00,16.7,14.5,30.43,NW,323,0.0,0.0,91,0.00,,,0.00,0,Wunderground v.1.15,2013-03-28 11:11:00,
2013-03-28 06:13:00,16.7,14.5,30.44,NW,323,0.0,0.0,91,0.00,,,0.00,0,Wunderground v.1.15,2013-03-28 11:13:00,
2013-03-28 06:14:00,16.7,14.5,30.44,NW,323,0.0,0.0,91,0.00,,,0.00,0,Wunderground v.1.15,2013-03-28 11:14:00,
2013-03-28 06:18:00,16.7,14.5,30.44,NW,323,0.0,0.0,91,0.00,,,0.00,0,Wunderground v.1.15,2013-03-28 11:18:00,
2013-03-28 06:20:00,16.6,14.4,30.44,NW,323,0.0,0.0,91,0.00,,,0.00,0,Wunderground v.1.15,2013-03-28 11:20:00,
2013-03-28 06:21:00,16.5,14.3,30.44,NW,323,0.0,0.0,91,0.00,,,0.00,0,Wunderground v.1.15,2013-03-28 11:21:00,
2013-03-28 06:24:00,16.4,14.2,30.44,NW,323,0.0,0.0,91,0.00,,,0.00,0,Wunderground v.1.15,2013-03-28 11:24:00,
2013-03-28 06:27:00,16.4,14.2,30.44,NW,323,0.0,0.0,91,0.00,,,0.00,0,Wunderground v.1.15,2013-03-28 11:27:00,
2013-03-28 06:30:00,16.4,14.2,30.44,NW,323,0.0,0.0,91,0.00,,,0.00,0,Wunderground v.1.15,2013-03-28 11:30:00,
2013-03-28 06:31:00,16.3,14.1,30.44,NW,323,0.0,0.0,91,0.00,,,0.00,0,Wunderground v.1.15,2013-03-28 11:31:00,
2013-03-28 06:32:00,16.3,14.1,30.44,NW,323,0.0,0.0,91,0.00,,,0.00,0,Wunderground v.1.15,2013-03-28 11:32:00,
2013-03-28 06:36:00,16.3,14.1,30.44,NW,323,0.0,0.0,91,0.00,,,0.00,0,Wunderground v.1.15,2013-03-28 11:36:00,
2013-03-28 06:37:00,16.3,14.1,30.44,NW,323,0.0,0.0,91,0.00,,,0.00,0,Wunderground v.1.15,2013-03-28 11:37:00,
2013-03-28 06:38:00,16.3,14.1,30.44,NW,323,0.0,0.0,91,0.00,,,0.00,0,Wunderground v.1.15,2013-03-28 11:38:00,
2013-03-28 06:42:00,16.4,14.2,30.44,NW,323,0.0,0.0,91,0.00,,,0.00,0,Wunderground v.1.15,2013-03-28 11:42:00,
2013-03-28 06:44:00,16.3,14.1,30.44,NW,323,0.0,0.0,91,0.00,,,0.00,0,Wunderground v.1.15,2013-03-28 11:44:00,
2013-03-28 06:45:00,16.3,14.1,30.44,NW,323,0.0,0.0,91,0.00,,,0.00,0,Wunderground v.1.15,2013-03-28 11:45:00,
2013-03-28 06:48:00,16.2,14.0,30.44,NW,323,0.0,0.0,91,0.00,,,0.00,0,Wunderground v.1.15,2013-03-28 11:48:00,
2013-03-28 06:53:00,16.3,14.1,30.44,NW,323,0.0,0.0,91,0.00,,,0.00,7,Wunderground v.1.15,2013-03-28 11:53:00,
2013-03-28 06:54:00,16.3,14.1,30.44,NW,323,0.0,0.0,91,0.00,,,0.00,7,Wunderground v.1.15,2013-03-28 11:54:00,
2013-03-28 06:56:00,16.3,14.1,30.44,NW,323,0.0,0.0,91,0.00,,,0.00,9,Wunderground v.1.15,2013-03-28 11:56:00,
2013-03-28 06:59:00,16.3,14.1,30.44,NW,323,0.0,0.0,91,0.00,,,0.00,11,Wunderground v.1.15,2013-03-28 11:59:00,
2013-03-28 07:00:00,16.3,14.1,30.44,NW,323,0.0,0.0,91,0.00,,,0.00,11,Wunderground v.1.15,2013-03-28 12:00:00,
2013-03-28 07:05:00,16.2,14.0,30.44,NW,323,0.0,0.0,91,0.00,,,0.00,16,Wunderground v.1.15,2013-03-28 12:05:00,
2013-03-28 07:07:00,16.3,14.1,30.44,NW,323,0.0,0.0,91,0.00,,,0.00,18,Wunderground v.1.15,2013-03-28 12:07:00,
2013-03-28 07:08:00,16.3,14.1,30.44,NW,323,0.0,0.0,91,0.00,,,0.00,18,Wunderground v.1.15,2013-03-28 12:08:00,
2013-03-28 07:10:00,16.3,14.1,30.44,NW,323,0.0,0.0,91,0.00,,,0.00,19,Wunderground v.1.15,2013-03-28 12:10:00,
2013-03-28 07:14:00,16.2,14.0,30.44,NW,323,0.0,0.0,91,0.00,,,0.00,28,Wunderground v.1.15,2013-03-28 12:14:00,
2013-03-28 07:15:00,16.3,14.1,30.44,NW,323,0.0,0.0,91,0.00,,,0.00,30,Wunderground v.1.15,2013-03-28 12:15:00,
2013-03-28 07:16:00,16.3,14.1,30.44,NW,323,0.0,0.0,91,0.00,,,0.00,33,Wunderground v.1.15,2013-03-28 12:16:00,
2013-03-28 07:17:00,16.3,14.1,30.44,NW,323,0.0,0.0,91,0.00,,,0.00,35,Wunderground v.1.15,2013-03-28 12:17:00,
2013-03-28 07:20:00,16.4,14.2,30.44,NW,323,0.0,0.0,91,0.00,,,0.00,42,Wunderground v.1.15,2013-03-28 12:20:00,
2013-03-28 07:21:00,16.4,14.2,30.44,NW,323,0.0,0.0,91,0.00,,,0.00,44,Wunderground v.1.15,2013-03-28 12:21:00,
2013-03-28 07:22:00,16.5,14.3,30.44,NW,323,0.0,0.0,91,0.00,,,0.00,47,Wunderground v.1.15,2013-03-28 12:22:00,
2013-03-28 07:23:00,16.5,14.3,30.44,NW,323,0.0,0.0,91,0.00,,,0.00,51,Wunderground v.1.15,2013-03-28 12:23:00,
2013-03-28 07:26:00,16.7,14.8,30.45,NW,323,0.0,0.0,92,0.00,,,0.00,56,Wunderground v.1.15,2013-03-28 12:26:00,
2013-03-28 07:29:00,16.8,14.9,30.44,NW,323,0.0,0.0,92,0.00,,,0.00,63,Wunderground v.1.15,2013-03-28 12:29:00,
2013-03-28 07:30:00,16.9,15.0,30.44,NW,323,0.0,0.0,92,0.00,,,0.00,65,Wunderground v.1.15,2013-03-28 12:30:00,
2013-03-28 07:34:00,17.1,14.9,30.45,NW,323,0.0,0.0,91,0.00,,,0.00,77,Wunderground v.1.15,2013-03-28 12:34:00,
2013-03-28 07:35:00,17.1,14.9,30.45,NW,323,0.0,0.0,91,0.00,,,0.00,81,Wunderground v.1.15,2013-03-28 12:35:00,
2013-03-28 07:36:00,17.2,15.0,30.45,NW,323,0.0,0.0,91,0.00,,,0.00,83,Wunderground v.1.15,2013-03-28 12:36:00,
2013-03-28 07:41:00,17.2,15.3,30.45,NW,323,0.0,0.0,92,0.00,,,0.00,97,Wunderground v.1.15,2013-03-28 12:41:00,
2013-03-28 07:42:00,17.3,15.4,30.45,NW,323,0.0,0.0,92,0.00,,,0.00,102,Wunderground v.1.15,2013-03-28 12:42:00,
2013-03-28 07:43:00,17.4,15.5,30.45,NW,323,0.0,0.0,92,0.00,,,0.00,105,Wunderground v.1.15,2013-03-28 12:43:00,
2013-03-28 07:44:00,17.5,15.6,30.45,NW,323,0.0,0.0,92,0.00,,,0.00,107,Wunderground v.1.15,2013-03-28 12:44:00,
2013-03-28 07:47:00,17.6,15.7,30.45,NW,323,0.0,0.0,92,0.00,,,0.00,116,Wunderground v.1.15,2013-03-28 12:47:00,
2013-03-28 07:48:00,17.6,15.4,30.45,NW,323,0.0,0.0,91,0.00,,,0.00,123,Wunderground v.1.15,2013-03-28 12:48:00,
2013-03-28 07:49:00,17.7,15.5,30.45,NW,323,0.0,0.0,91,0.00,,,0.00,125,Wunderground v.1.15,2013-03-28 12:49:00,
2013-03-28 07:50:00,17.8,15.6,30.45,NW,323,0.0,0.0,91,0.00,,,0.00,128,Wunderground v.1.15,2013-03-28 12:50:00,
2013-03-28 07:54:00,18.0,16.1,30.45,NW,323,0.0,0.0,92,0.00,,,0.00,142,Wunderground v.1.15,2013-03-28 12:54:00,
2013-03-28 07:55:00,18.0,16.1,30.45,NW,323,0.0,0.0,92,0.00,,,0.00,144,Wunderground v.1.15,2013-03-28 12:55:00,
2013-03-28 07:56:00,18.1,16.2,30.45,NW,323,0.0,0.0,92,0.00,,,0.00,148,Wunderground v.1.15,2013-03-28 12:56:00,
2013-03-28 08:01:00,18.4,16.5,30.45,NW,323,0.0,0.0,92,0.00,,,0.00,163,Wunderground v.1.15,2013-03-28 13:01:00,
2013-03-28 08:03:00,18.4,16.5,30.45,NW,323,0.0,0.0,92,0.00,,,0.00,193,Wunderground v.1.15,2013-03-28 13:03:00,
2013-03-28 08:04:00,18.5,16.6,30.45,NW,323,0.0,0.0,92,0.00,,,0.00,193,Wunderground v.1.15,2013-03-28 13:04:00,
2013-03-28 08:07:00,18.7,16.8,30.45,NW,323,0.0,0.0,92,0.00,,,0.00,207,Wunderground v.1.15,2013-03-28 13:07:00,
2013-03-28 08:09:00,18.9,17.0,30.45,NW,323,0.0,1.0,92,0.00,,,0.00,214,Wunderground v.1.15,2013-03-28 13:09:00,
2013-03-28 08:10:00,18.9,17.0,30.45,NW,323,0.0,1.0,92,0.00,,,0.00,216,Wunderground v.1.15,2013-03-28 13:10:00,
2013-03-28 08:15:00,19.2,17.3,30.45,NW,323,0.0,1.0,92,0.00,,,0.00,236,Wunderground v.1.15,2013-03-28 13:15:00,
2013-03-28 08:16:00,19.3,17.1,30.45,NW,323,0.0,1.0,91,0.00,,,0.00,237,Wunderground v.1.15,2013-03-28 13:16:00,
2013-03-28 08:17:00,19.3,17.4,30.45,NW,323,0.0,1.0,92,0.00,,,0.00,241,Wunderground v.1.15,2013-03-28 13:17:00,
2013-03-28 08:18:00,19.4,17.2,30.45,NW,323,0.0,1.0,91,0.00,,,0.00,246,Wunderground v.1.15,2013-03-28 13:18:00,
2013-03-28 08:22:00,19.8,17.9,30.45,NW,323,0.0,0.0,92,0.00,,,0.00,255,Wunderground v.1.15,2013-03-28 13:22:00,
2013-03-28 08:23:00,19.9,17.7,30.45,NW,323,0.0,0.0,91,0.00,,,0.00,262,Wunderground v.1.15,2013-03-28 13:23:00,
2013-03-28 08:26:00,20.2,18.0,30.45,NW,323,0.0,0.0,91,0.00,,,0.00,265,Wunderground v.1.15,2013-03-28 13:26:00,
2013-03-28 08:28:00,20.3,18.1,30.45,NW,323,0.0,0.0,91,0.00,,,0.00,274,Wunderground v.1.15,2013-03-28 13:28:00,
2013-03-28 08:31:00,20.6,18.4,30.45,NW,323,0.0,0.0,91,0.00,,,0.00,241,Wunderground v.1.15,2013-03-28 13:31:00,
2013-03-28 08:33:00,20.8,18.6,30.45,NW,323,0.0,0.0,91,0.00,,,0.00,251,Wunderground v.1.15,2013-03-28 13:33:00,
2013-03-28 08:34:00,20.9,18.7,30.45,NW,323,0.0,0.0,91,0.00,,,0.00,251,Wunderground v.1.15,2013-03-28 13:34:00,
2013-03-28 08:35:00,21.0,18.8,30.45,NW,323,0.0,0.0,91,0.00,,,0.00,271,Wunderground v.1.15,2013-03-28 13:35:00,
2013-03-28 08:39:00,21.5,19.0,30.45,NW,323,0.0,0.0,90,0.00,,,0.00,283,Wunderground v.1.15,2013-03-28 13:39:00,
2013-03-28 08:40:00,21.5,19.0,30.45,NW,323,0.0,0.0,90,0.00,,,0.00,274,Wunderground v.1.15,2013-03-28 13:40:00,
2013-03-28 08:41:00,21.6,19.1,30.45,NW,323,0.0,0.0,90,0.00,,,0.00,279,Wunderground v.1.15,2013-03-28 13:41:00,
2013-03-28 08:44:00,21.8,19.3,30.45,NW,323,0.0,1.0,90,0.00,,,0.00,297,Wunderground v.1.15,2013-03-28 13:44:00,
2013-03-28 08:46:00,22.0,19.3,30.45,NW,323,0.0,1.0,89,0.00,,,0.00,302,Wunderground v.1.15,2013-03-28 13:46:00,
2013-03-28 08:47:00,22.0,19.3,30.45,NW,323,0.0,1.0,89,0.00,,,0.00,302,Wunderground v.1.15,2013-03-28 13:47:00,
2013-03-28 08:49:00,22.2,19.5,30.45,NW,323,0.0,1.0,89,0.00,,,0.00,269,Wunderground v.1.15,2013-03-28 13:49:00,
2013-03-28 08:53:00,22.6,19.8,30.45,NW,323,0.0,0.0,89,0.00,,,0.00,308,Wunderground v.1.15,2013-03-28 13:53:00,
2013-03-28 08:54:00,22.7,19.9,30.45,NW,323,0.0,0.0,89,0.00,,,0.00,285,Wunderground v.1.15,2013-03-28 13:54:00,
2013-03-28 08:56:00,23.0,20.0,30.45,NW,323,0.0,0.0,88,0.00,,,0.00,279,Wunderground v.1.15,2013-03-28 13:56:00,
2013-03-28 09:00:00,23.6,20.6,30.45,NW,323,0.0,0.0,88,0.00,,,0.00,320,Wunderground v.1.15,2013-03-28 14:00:00,
2013-03-28 09:01:00,23.7,20.4,30.45,NW,323,0.0,0.0,87,0.00,,,0.00,371,Wunderground v.1.15,2013-03-28 14:01:00,
2013-03-28 09:04:00,24.1,20.8,30.45,NW,323,0.0,0.0,87,0.00,,,0.00,380,Wunderground v.1.15,2013-03-28 14:04:00,
2013-03-28 09:07:00,24.5,20.9,30.45,NW,323,0.0,0.0,86,0.00,,,0.00,394,Wunderground v.1.15,2013-03-28 14:07:00,
2013-03-28 09:09:00,24.7,21.1,30.45,NW,323,0.0,0.0,86,0.00,,,0.00,406,Wunderground v.1.15,2013-03-28 14:09:00,
2013-03-28 09:10:00,24.8,20.9,30.45,NW,323,0.0,0.0,85,0.00,,,0.00,406,Wunderground v.1.15,2013-03-28 14:10:00,
2013-03-28 09:14:00,25.3,21.1,30.45,NW,323,0.0,0.0,84,0.00,,,0.00,422,Wunderground v.1.15,2013-03-28 14:14:00,
2013-03-28 09:15:00,25.5,21.3,30.45,NW,323,0.0,0.0,84,0.00,,,0.00,425,Wunderground v.1.15,2013-03-28 14:15:00,
2013-03-28 09:16:00,25.7,21.5,30.45,NW,323,0.0,1.0,84,0.00,,,0.00,420,Wunderground v.1.15,2013-03-28 14:16:00,
2013-03-28 09:17:00,25.9,21.7,30.45,NW,323,0.0,1.0,84,0.00,,,0.00,434,Wunderground v.1.15,2013-03-28 14:17:00,
2013-03-28 09:19:00,26.2,21.7,30.45,NW,323,0.0,1.0,83,0.00,,,0.00,438,Wunderground v.1.15,2013-03-28 14:19:00,
2013-03-28 09:21:00,26.4,21.7,30.45,NW,323,0.0,0.0,82,0.00,,,0.00,438,Wunderground v.1.15,2013-03-28 14:21:00,
2013-03-28 09:22:00,26.7,21.9,30.45,NW,323,0.0,0.0,82,0.00,,,0.00,438,Wunderground v.1.15,2013-03-28 14:22:00,
2013-03-28 09:24:00,27.0,22.2,30.45,NW,323,0.0,0.0,82,0.00,,,0.00,362,Wunderground v.1.15,2013-03-28 14:24:00,
2013-03-28 09:27:00,27.6,21.9,30.45,NW,323,0.0,0.0,79,0.00,,,0.00,420,Wunderground v.1.15,2013-03-28 14:27:00,
2013-03-28 09:28:00,27.4,21.4,30.45,NW,323,0.0,0.0,78,0.00,,,0.00,450,Wunderground v.1.15,2013-03-28 14:28:00,
2013-03-28 09:29:00,27.6,21.9,30.45,NW,323,0.0,0.0,79,0.00,,,0.00,455,Wunderground v.1.15,2013-03-28 14:29:00,
2013-03-28 09:32:00,27.8,22.1,30.45,NW,323,0.0,0.0,79,0.00,,,0.00,450,Wunderground v.1.15,2013-03-28 14:32:00,
2013-03-28 09:35:00,28.2,22.2,30.45,NW,323,0.0,0.0,78,0.00,,,0.00,482,Wunderground v.1.15,2013-03-28 14:35:00,
2013-03-28 09:37:00,28.8,22.8,30.45,NW,323,0.0,0.0,78,0.00,,,0.00,485,Wunderground v.1.15,2013-03-28 14:37:00,
2013-03-28 09:41:00,29.6,23.0,30.45,NW,323,0.0,0.0,76,0.00,,,0.00,497,Wunderground v.1.15,2013-03-28 14:41:00,
2013-03-28 09:43:00,29.8,23.2,30.45,NW,323,0.0,0.0,76,0.00,,,0.00,501,Wunderground v.1.15,2013-03-28 14:43:00,
2013-03-28 09:45:00,30.7,24.0,30.45,NW,323,0.0,0.0,76,0.00,,,0.00,508,Wunderground v.1.15,2013-03-28 14:45:00,
2013-03-28 09:48:00,30.9,23.3,30.45,NW,323,0.0,1.0,73,0.00,,,0.00,519,Wunderground v.1.15,2013-03-28 14:48:00,
2013-03-28 09:49:00,30.7,23.1,30.45,NW,323,0.0,1.0,73,0.00,,,0.00,519,Wunderground v.1.15,2013-03-28 14:49:00,
2013-03-28 09:50:00,30.5,22.9,30.45,NW,323,0.0,1.0,73,0.00,,,0.00,522,Wunderground v.1.15,2013-03-28 14:50:00,
2013-03-28 09:52:00,30.2,22.6,30.45,NW,323,0.0,1.0,73,0.00,,,0.00,531,Wunderground v.1.15,2013-03-28 14:52:00,
2013-03-28 09:56:00,31.1,23.5,30.45,NW,323,0.0,1.0,73,0.00,,,0.00,541,Wunderground v.1.15,2013-03-28 14:56:00,
2013-03-28 09:57:00,31.1,23.1,30.45,NW,323,0.0,1.0,72,0.00,,,0.00,545,Wunderground v.1.15,2013-03-28 14:57:00,
2013-03-28 09:59:00,31.6,23.6,30.45,NW,323,0.0,1.0,72,0.00,,,0.00,552,Wunderground v.1.15,2013-03-28 14:59:00,
2013-03-28 10:02:00,32.0,23.7,30.45,NW,323,0.0,1.0,71,0.00,,,0.00,559,Wunderground v.1.15,2013-03-28 15:02:00,
2013-03-28 10:04:00,32.3,23.6,30.45,NW,323,0.0,1.0,70,0.00,,,0.00,529,Wunderground v.1.15,2013-03-28 15:04:00,
2013-03-28 10:05:00,32.5,23.8,30.45,NW,323,0.0,1.0,70,0.00,,,0.00,508,Wunderground v.1.15,2013-03-28 15:05:00,
2013-03-28 10:08:00,32.6,23.2,30.45,NW,323,0.0,1.0,68,0.00,,,0.00,575,Wunderground v.1.15,2013-03-28 15:08:00,
2013-03-28 10:10:00,32.7,23.6,30.45,NW,323,0.0,2.0,69,0.00,,,0.00,578,Wunderground v.1.15,2013-03-28 15:10:00,
2013-03-28 10:11:00,32.8,23.4,30.45,NW,323,0.0,2.0,68,0.00,,,0.00,580,Wunderground v.1.15,2013-03-28 15:11:00,
2013-03-28 10:13:00,33.5,24.1,30.45,NW,323,0.0,2.0,68,0.00,,,0.00,587,Wunderground v.1.15,2013-03-28 15:13:00,
2013-03-28 10:18:00,34.1,22.4,30.45,NW,323,1.0,3.0,62,0.00,,,0.00,603,Wunderground v.1.15,2013-03-28 15:18:00,
2013-03-28 10:19:00,34.2,22.5,30.45,NW,323,1.0,3.0,62,0.00,,,0.00,599,Wunderground v.1.15,2013-03-28 15:19:00,
2013-03-28 10:20:00,34.3,22.2,30.45,NW,323,1.0,3.0,61,0.00,,,0.00,599,Wunderground v.1.15,2013-03-28 15:20:00,
2013-03-28 10:23:00,34.5,22.0,30.45,NW,323,1.0,3.0,60,0.00,,,0.00,598,Wunderground v.1.15,2013-03-28 15:23:00,
2013-03-28 10:25:00,34.6,22.1,30.45,NW,323,1.0,3.0,60,0.00,,,0.00,599,Wunderground v.1.15,2013-03-28 15:25:00,
2013-03-28 10:26:00,34.7,22.2,30.45,NW,323,2.0,3.0,60,0.00,,,0.00,608,Wunderground v.1.15,2013-03-28 15:26:00,
2013-03-28 10:28:00,35.1,22.6,30.45,NW,323,2.0,3.0,60,0.00,,,0.00,621,Wunderground v.1.15,2013-03-28 15:28:00,
2013-03-28 10:31:00,35.4,22.5,30.45,NW,323,1.0,2.0,59,0.00,,,0.00,643,Wunderground v.1.15,2013-03-28 15:31:00,
2013-03-28 10:33:00,35.8,23.3,30.45,NW,323,1.0,2.0,60,0.00,,,0.00,640,Wunderground v.1.15,2013-03-28 15:33:00,
2013-03-28 10:35:00,36.1,22.7,30.45,NW,323,1.0,2.0,58,0.00,,,0.00,640,Wunderground v.1.15,2013-03-28 15:35:00,
2013-03-28 10:36:00,36.3,23.3,30.45,NW,323,1.0,2.0,59,0.00,,,0.00,645,Wunderground v.1.15,2013-03-28 15:36:00,
2013-03-28 10:37:00,36.5,23.1,30.45,NW,323,1.0,2.0,58,0.00,,,0.00,654,Wunderground v.1.15,2013-03-28 15:37:00,
2013-03-28 10:39:00,36.4,22.6,30.44,NW,323,1.0,2.0,57,0.00,,,0.00,661,Wunderground v.1.15,2013-03-28 15:39:00,
2013-03-28 10:42:00,36.8,23.0,30.44,NW,323,0.0,1.0,57,0.00,,,0.00,670,Wunderground v.1.15,2013-03-28 15:42:00,
2013-03-28 10:43:00,37.5,23.6,30.44,NW,323,0.0,1.0,57,0.00,,,0.00,677,Wunderground v.1.15,2013-03-28 15:43:00,
2013-03-28 10:44:00,37.9,24.0,30.44,NW,323,0.0,1.0,57,0.00,,,0.00,680,Wunderground v.1.15,2013-03-28 15:44:00,
2013-03-28 10:49:00,38.1,23.3,30.44,NW,323,0.0,1.0,55,0.00,,,0.00,686,Wunderground v.1.15,2013-03-28 15:49:00,
2013-03-28 10:50:00,38.2,23.4,30.44,NW,323,0.0,0.0,55,0.00,,,0.00,694,Wunderground v.1.15,2013-03-28 15:50:00,
2013-03-28 10:52:00,38.8,23.6,30.44,NW,323,0.0,0.0,54,0.00,,,0.00,701,Wunderground v.1.15,2013-03-28 15:52:00,
2013-03-28 10:54:00,39.1,22.9,30.44,NW,323,0.0,0.0,52,0.00,,,0.00,703,Wunderground v.1.15,2013-03-28 15:54:00,
2013-03-28 10:56:00,40.0,24.2,30.44,NW,323,0.0,0.0,53,0.00,,,0.00,714,Wunderground v.1.15,2013-03-28 15:56:00,
2013-03-28 11:00:00,40.2,23.0,30.44,NW,323,0.0,0.0,50,0.00,,,0.00,715,Wunderground v.1.15,2013-03-28 16:00:00,
2013-03-28 11:02:00,40.3,23.1,30.44,NW,323,0.0,0.0,50,0.00,,,0.00,712,Wunderground v.1.15,2013-03-28 16:02:00,
2013-03-28 11:07:00,40.0,23.8,30.43,NW,323,0.0,2.0,52,0.00,,,0.00,700,Wunderground v.1.15,2013-03-28 16:07:00,
2013-03-28 11:08:00,39.9,23.7,30.44,NW,323,1.0,2.0,52,0.00,,,0.00,701,Wunderground v.1.15,2013-03-28 16:08:00,
2013-03-28 11:09:00,40.0,23.3,30.44,NW,323,1.0,2.0,51,0.00,,,0.00,740,Wunderground v.1.15,2013-03-28 16:09:00,
2013-03-28 11:13:00,39.7,23.0,30.44,NW,323,1.0,2.0,51,0.00,,,0.00,759,Wunderground v.1.15,2013-03-28 16:13:00,
2013-03-28 11:14:00,39.7,22.6,30.44,NW,323,1.0,2.0,50,0.00,,,0.00,751,Wunderground v.1.15,2013-03-28 16:14:00,
2013-03-28 11:15:00,40.0,23.3,30.44,NW,323,1.0,2.0,51,0.00,,,0.00,733,Wunderground v.1.15,2013-03-28 16:15:00,
2013-03-28 11:20:00,41.5,22.7,30.44,NW,323,1.0,1.0,47,0.00,,,0.00,744,Wunderground v.1.15,2013-03-28 16:20:00,
2013-03-28 11:22:00,41.5,22.2,30.44,NW,323,1.0,1.0,46,0.00,,,0.00,656,Wunderground v.1.15,2013-03-28 16:22:00,
2013-03-28 11:23:00,41.7,22.9,30.44,NW,323,1.0,1.0,47,0.00,,,0.00,580,Wunderground v.1.15,2013-03-28 16:23:00,
2013-03-28 11:28:00,41.6,21.8,30.44,SW,230,1.0,3.0,45,0.00,,,0.00,663,Wunderground v.1.15,2013-03-28 16:28:00,
2013-03-28 11:29:00,41.5,21.7,30.44,SW,230,1.0,3.0,45,0.00,,,0.00,663,Wunderground v.1.15,2013-03-28 16:29:00,
2013-03-28 11:30:00,41.2,21.4,30.44,SW,230,1.0,2.0,45,0.00,,,0.00,721,Wunderground v.1.15,2013-03-28 16:30:00,
2013-03-28 11:31:00,41.0,21.3,30.44,SW,230,2.0,3.0,45,0.00,,,0.00,715,Wunderground v.1.15,2013-03-28 16:31:00,
2013-03-28 11:36:00,41.5,21.2,30.44,SW,230,2.0,3.0,44,0.00,,,0.00,745,Wunderground v.1.15,2013-03-28 16:36:00,
2013-03-28 11:37:00,41.5,21.2,30.44,SW,230,2.0,3.0,44,0.00,,,0.00,721,Wunderground v.1.15,2013-03-28 16:37:00,
2013-03-28 11:38:00,41.4,21.1,30.44,SW,230,2.0,3.0,44,0.00,,,0.00,768,Wunderground v.1.15,2013-03-28 16:38:00,
2013-03-28 11:40:00,41.4,21.1,30.44,SW,230,1.0,1.0,44,0.00,,,0.00,694,Wunderground v.1.15,2013-03-28 16:40:00,
2013-03-28 11:43:00,41.9,21.5,30.44,SW,230,1.0,3.0,44,0.00,,,0.00,584,Wunderground v.1.15,2013-03-28 16:43:00,
2013-03-28 11:44:00,41.7,20.8,30.44,SW,230,1.0,3.0,43,0.00,,,0.00,526,Wunderground v.1.15,2013-03-28 16:44:00,
2013-03-28 11:46:00,41.6,21.3,30.44,SW,230,1.0,3.0,44,0.00,,,0.00,759,Wunderground v.1.15,2013-03-28 16:46:00,
2013-03-28 11:48:00,42.0,21.6,30.44,SW,230,1.0,3.0,44,0.00,,,0.00,772,Wunderground v.1.15,2013-03-28 16:48:00,
2013-03-28 11:49:00,42.2,21.8,30.44,SW,230,1.0,3.0,44,0.00,,,0.00,788,Wunderground v.1.15,2013-03-28 16:49:00,
2013-03-28 11:53:00,42.5,21.5,30.44,SW,230,1.0,3.0,43,0.00,,,0.00,773,Wunderground v.1.15,2013-03-28 16:53:00,
2013-03-28 11:54:00,42.7,21.2,30.44,SW,230,1.0,3.0,42,0.00,,,0.00,779,Wunderground v.1.15,2013-03-28 16:54:00,
2013-03-28 11:55:00,42.5,21.0,30.44,SW,230,1.0,3.0,42,0.00,,,0.00,777,Wunderground v.1.15,2013-03-28 16:55:00,
2013-03-28 11:59:00,42.4,20.9,30.43,SW,230,1.0,3.0,42,0.00,,,0.00,817,Wunderground v.1.15,2013-03-28 16:59:00,
2013-03-28 12:03:00,42.2,20.2,30.43,SW,230,2.0,2.0,41,0.00,,,0.00,828,Wunderground v.1.15,2013-03-28 17:03:00,
2013-03-28 12:05:00,42.3,20.8,30.43,SW,230,2.0,4.0,42,0.00,,,0.00,833,Wunderground v.1.15,2013-03-28 17:05:00,
2013-03-28 12:06:00,42.5,21.0,30.43,West,280,2.0,4.0,42,0.00,,,0.00,816,Wunderground v.1.15,2013-03-28 17:06:00,
2013-03-28 12:11:00,43.0,21.4,30.43,West,268,2.0,2.0,42,0.00,,,0.00,824,Wunderground v.1.15,2013-03-28 17:11:00,
2013-03-28 12:12:00,43.0,20.9,30.43,WSW,250,2.0,4.0,41,0.00,,,0.00,830,Wunderground v.1.15,2013-03-28 17:12:00,
2013-03-28 12:17:00,42.6,19.9,30.43,SW,229,3.0,6.0,40,0.00,,,0.00,798,Wunderground v.1.15,2013-03-28 17:17:00,
2013-03-28 12:19:00,42.7,20.0,30.43,SW,234,3.0,6.0,40,0.00,,,0.00,754,Wunderground v.1.15,2013-03-28 17:19:00,
2013-03-28 12:21:00,42.8,21.3,30.43,SW,231,4.0,4.0,42,0.00,,,0.00,779,Wunderground v.1.15,2013-03-28 17:21:00,
2013-03-28 12:24:00,43.2,20.5,30.43,SW,232,3.0,4.0,40,0.00,,,0.00,766,Wunderground v.1.15,2013-03-28 17:24:00,
2013-03-28 12:25:00,43.2,21.1,30.43,SW,215,3.0,4.0,41,0.00,,,0.00,670,Wunderground v.1.15,2013-03-28 17:25:00,
2013-03-28 12:29:00,42.8,20.7,30.43,SW,215,3.0,4.0,41,0.00,,,0.00,724,Wunderground v.1.15,2013-03-28 17:29:00,
2013-03-28 12:31:00,42.7,19.4,30.43,SW,215,2.0,3.0,39,0.00,,,0.00,816,Wunderground v.1.15,2013-03-28 17:31:00,
2013-03-28 12:32:00,43.1,20.4,30.43,SSW,194,2.0,4.0,40,0.00,,,0.00,823,Wunderground v.1.15,2013-03-28 17:32:00,
2013-03-28 12:33:00,43.0,19.7,30.43,SSE,168,2.0,4.0,39,0.00,,,0.00,828,Wunderground v.1.15,2013-03-28 17:33:00,
2013-03-28 12:37:00,43.5,19.5,30.43,South,171,2.0,4.0,38,0.00,,,0.00,844,Wunderground v.1.15,2013-03-28 17:37:00,
2013-03-28 12:38:00,43.4,20.1,30.43,South,171,2.0,4.0,39,0.00,,,0.00,788,Wunderground v.1.15,2013-03-28 17:38:00,
2013-03-28 12:40:00,43.4,20.1,30.43,South,171,1.0,1.0,39,0.00,,,0.00,793,Wunderground v.1.15,2013-03-28 17:40:00,
2013-03-28 12:43:00,43.6,19.6,30.43,ENE,64,1.0,2.0,38,0.00,,,0.00,738,Wunderground v.1.15,2013-03-28 17:43:00,
2013-03-28 12:44:00,43.7,20.3,30.43,SSE,168,1.0,2.0,39,0.00,,,0.00,687,Wunderground v.1.15,2013-03-28 17:44:00,
2013-03-28 12:46:00,43.8,20.4,30.43,South,186,1.0,2.0,39,0.00,,,0.00,721,Wunderground v.1.15,2013-03-28 17:46:00,
2013-03-28 12:49:00,43.8,20.4,30.43,SSW,199,1.0,2.0,39,0.00,,,0.00,807,Wunderground v.1.15,2013-03-28 17:49:00,
2013-03-28 12:51:00,43.8,20.4,30.43,SSW,199,1.0,3.0,39,0.00,,,0.00,826,Wunderground v.1.15,2013-03-28 17:51:00,
2013-03-28 12:53:00,44.2,20.2,30.43,SW,228,2.0,4.0,38,0.00,,,0.00,817,Wunderground v.1.15,2013-03-28 17:53:00,
2013-03-28 12:54:00,44.2,20.2,30.43,WSW,243,2.0,4.0,38,0.00,,,0.00,823,Wunderground v.1.15,2013-03-28 17:54:00,
2013-03-28 12:56:00,44.2,20.2,30.43,WSW,239,2.0,4.0,38,0.00,,,0.00,828,Wunderground v.1.15,2013-03-28 17:56:00,
2013-03-28 13:00:00,43.9,19.9,30.43,South,185,2.0,2.0,38,0.00,,,0.00,807,Wunderground v.1.15,2013-03-28 18:00:00,
2013-03-28 13:01:00,44.1,21.3,30.43,South,178,2.0,2.0,40,0.00,,,0.00,788,Wunderground v.1.15,2013-03-28 18:01:00,
2013-03-28 13:05:00,43.8,19.8,30.43,SW,224,2.0,4.0,38,0.00,,,0.00,821,Wunderground v.1.15,2013-03-28 18:05:00,
2013-03-28 13:07:00,43.6,19.6,30.43,West,261,2.0,4.0,38,0.00,,,0.00,833,Wunderground v.1.15,2013-03-28 18:07:00,
2013-03-28 13:09:00,44.3,20.9,30.43,West,269,2.0,4.0,39,0.00,,,0.00,838,Wunderground v.1.15,2013-03-28 18:09:00,
2013-03-28 13:11:00,44.3,20.3,30.43,WSW,250,3.0,4.0,38,0.00,,,0.00,831,Wunderground v.1.15,2013-03-28 18:11:00,
2013-03-28 13:12:00,44.2,20.2,30.42,SW,235,3.0,4.0,38,0.00,,,0.00,826,Wunderground v.1.15,2013-03-28 18:12:00,
2013-03-28 13:15:00,43.8,19.8,30.42,SW,232,4.0,6.0,38,0.00,,,0.00,793,Wunderground v.1.15,2013-03-28 18:15:00,
2013-03-28 13:16:00,43.6,19.6,30.42,SW,230,4.0,6.0,38,0.00,,,0.00,826,Wunderground v.1.15,2013-03-28 18:16:00,
2013-03-28 13:18:00,43.6,19.6,30.42,SW,236,4.0,6.0,38,0.00,,,0.00,830,Wunderground v.1.15,2013-03-28 18:18:00,
2013-03-28 13:21:00,43.3,19.4,30.42,SW,224,5.0,5.0,38,0.00,,,0.00,821,Wunderground v.1.15,2013-03-28 18:21:00,
2013-03-28 13:23:00,43.6,20.2,30.42,SW,227,5.0,5.0,39,0.00,,,0.00,819,Wunderground v.1.15,2013-03-28 18:23:00,
2013-03-28 13:24:00,43.7,19.7,30.42,SW,236,5.0,5.0,38,0.00,,,0.00,817,Wunderground v.1.15,2013-03-28 18:24:00,
2013-03-28 13:29:00,44.5,20.4,30.42,WSW,242,3.0,5.0,38,0.00,,,0.00,747,Wunderground v.1.15,2013-03-28 18:29:00,
2013-03-28 13:30:00,44.7,20.6,30.42,WSW,242,2.0,2.0,38,0.00,,,0.00,693,Wunderground v.1.15,2013-03-28 18:30:00,
2013-03-28 13:31:00,44.6,19.9,30.42,WSW,242,2.0,4.0,37,0.00,,,0.00,791,Wunderground v.1.15,2013-03-28 18:31:00,
2013-03-28 13:33:00,44.0,19.4,30.42,WSW,242,2.0,5.0,37,0.00,,,0.00,816,Wunderground v.1.15,2013-03-28 18:33:00,
2013-03-28 13:37:00,43.6,20.2,30.42,WSW,252,3.0,7.0,39,0.00,,,0.00,805,Wunderground v.1.15,2013-03-28 18:37:00,
2013-03-28 13:38:00,43.8,20.4,30.42,WSW,240,4.0,7.0,39,0.00,,,0.00,805,Wunderground v.1.15,2013-03-28 18:38:00,
2013-03-28 13:39:00,43.9,19.9,30.42,SW,236,4.0,7.0,38,0.00,,,0.00,805,Wunderground v.1.15,2013-03-28 18:39:00,
2013-03-28 13:42:00,43.9,19.9,30.42,SW,236,4.0,4.0,38,0.00,,,0.00,796,Wunderground v.1.15,2013-03-28 18:42:00,
2013-03-28 13:43:00,44.0,20.0,30.42,SW,236,4.0,4.0,38,0.00,,,0.00,788,Wunderground v.1.15,2013-03-28 18:43:00,
2013-03-28 13:48:00,45.0,20.9,30.41,WSW,250,2.0,4.0,38,0.00,,,0.00,761,Wunderground v.1.15,2013-03-28 18:48:00,
2013-03-28 13:49:00,45.2,21.1,30.41,WSW,250,2.0,4.0,38,0.00,,,0.00,759,Wunderground v.1.15,2013-03-28 18:49:00,
2013-03-28 13:53:00,45.8,20.3,30.41,WSW,254,1.0,4.0,36,0.00,,,0.00,793,Wunderground v.1.15,2013-03-28 18:53:00,
2013-03-28 13:54:00,45.8,20.3,30.41,WSW,254,1.0,4.0,36,0.00,,,0.00,795,Wunderground v.1.15,2013-03-28 18:54:00,
2013-03-28 13:55:00,45.8,20.3,30.41,WSW,254,1.0,4.0,36,0.00,,,0.00,791,Wunderground v.1.15,2013-03-28 18:55:00,
2013-03-28 13:56:00,45.7,20.9,30.41,SW,219,2.0,7.0,37,0.00,,,0.00,795,Wunderground v.1.15,2013-03-28 18:56:00,
2013-03-28 14:00:00,44.1,19.5,30.41,SW,228,4.0,5.0,37,0.00,,,0.00,788,Wunderground v.1.15,2013-03-28 19:00:00,
2013-03-28 14:01:00,44.0,20.0,30.41,SW,231,4.0,6.0,38,0.00,,,0.00,780,Wunderground v.1.15,2013-03-28 19:01:00,
2013-03-28 14:02:00,43.9,19.9,30.41,WSW,242,4.0,6.0,38,0.00,,,0.00,786,Wunderground v.1.15,2013-03-28 19:02:00,
2013-03-28 14:05:00,44.0,20.6,30.41,WSW,242,6.0,6.0,39,0.00,,,0.00,772,Wunderground v.1.15,2013-03-28 19:05:00,
2013-03-28 14:08:00,44.0,20.6,30.41,SW,234,6.0,7.0,39,0.00,,,0.00,768,Wunderground v.1.15,2013-03-28 19:08:00,
2013-03-28 14:10:00,43.9,19.9,30.41,WSW,239,6.0,6.0,38,0.00,,,0.00,773,Wunderground v.1.15,2013-03-28 19:10:00,
2013-03-28 14:13:00,44.0,20.0,30.41,SW,235,5.0,8.0,38,0.00,,,0.00,770,Wunderground v.1.15,2013-03-28 19:13:00,
2013-03-28 14:14:00,44.0,20.0,30.41,SW,234,5.0,8.0,38,0.00,,,0.00,770,Wunderground v.1.15,2013-03-28 19:14:00,
2013-03-28 14:15:00,44.0,20.0,30.41,WSW,238,6.0,8.0,38,0.00,,,0.00,772,Wunderground v.1.15,2013-03-28 19:15:00,
2013-03-28 14:18:00,44.1,20.7,30.41,SW,231,6.0,8.0,39,0.00,,,0.00,763,Wunderground v.1.15,2013-03-28 19:18:00,
2013-03-28 14:19:00,44.2,20.8,30.41,WSW,245,6.0,8.0,39,0.00,,,0.00,745,Wunderground v.1.15,2013-03-28 19:19:00,
2013-03-28 14:24:00,44.6,21.1,30.41,WSW,242,5.0,6.0,39,0.00,,,0.00,756,Wunderground v.1.15,2013-03-28 19:24:00,
2013-03-28 14:25:00,44.5,21.6,30.41,SW,222,4.0,6.0,40,0.00,,,0.00,752,Wunderground v.1.15,2013-03-28 19:25:00,
2013-03-28 14:30:00,44.7,21.2,30.41,WSW,255,5.0,7.0,39,0.00,,,0.00,751,Wunderground v.1.15,2013-03-28 19:30:00,
2013-03-28 14:31:00,44.7,21.2,30.40,SW,231,5.0,7.0,39,0.00,,,0.00,744,Wunderground v.1.15,2013-03-28 19:31:00,
2013-03-28 14:32:00,44.5,20.4,30.40,SW,217,5.0,7.0,38,0.00,,,0.00,744,Wunderground v.1.15,2013-03-28 19:32:00,
2013-03-28 14:37:00,43.7,20.9,30.40,WSW,237,6.0,7.0,40,0.00,,,0.00,737,Wunderground v.1.15,2013-03-28 19:37:00,
2013-03-28 14:38:00,43.8,21.6,30.40,SW,234,6.0,7.0,41,0.00,,,0.00,733,Wunderground v.1.15,2013-03-28 19:38:00,
2013-03-28 14:39:00,43.8,21.0,30.40,SW,227,6.0,7.0,40,0.00,,,0.00,731,Wunderground v.1.15,2013-03-28 19:39:00,
2013-03-28 14:43:00,44.5,21.6,30.40,WSW,241,5.0,6.0,40,0.00,,,0.00,726,Wunderground v.1.15,2013-03-28 19:43:00,
2013-03-28 14:44:00,44.4,21.6,30.40,SW,227,5.0,6.0,40,0.00,,,0.00,726,Wunderground v.1.15,2013-03-28 19:44:00,
2013-03-28 14:48:00,44.2,21.4,30.40,WSW,240,4.0,7.0,40,0.00,,,0.00,715,Wunderground v.1.15,2013-03-28 19:48:00,
2013-03-28 14:49:00,44.3,21.5,30.40,SW,232,4.0,7.0,40,0.00,,,0.00,715,Wunderground v.1.15,2013-03-28 19:49:00,
2013-03-28 14:50:00,44.2,21.4,30.40,WSW,252,4.0,4.0,40,0.00,,,0.00,712,Wunderground v.1.15,2013-03-28 19:50:00,
2013-03-28 14:51:00,44.2,22.0,30.40,SW,232,4.0,4.0,41,0.00,,,0.00,710,Wunderground v.1.15,2013-03-28 19:51:00,
2013-03-28 14:55:00,44.0,22.4,30.40,SW,231,5.0,6.0,42,0.00,,,0.00,705,Wunderground v.1.15,2013-03-28 19:55:00,
2013-03-28 14:56:00,43.9,22.3,30.40,WSW,250,5.0,8.0,42,0.00,,,0.00,701,Wunderground v.1.15,2013-03-28 19:56:00,
2013-03-28 14:58:00,43.8,22.7,30.40,SW,234,5.0,8.0,43,0.00,,,0.00,698,Wunderground v.1.15,2013-03-28 19:58:00,
2013-03-28 15:00:00,43.7,22.6,30.40,SW,225,5.0,7.0,43,0.00,,,0.00,694,Wunderground v.1.15,2013-03-28 20:00:00,
2013-03-28 15:04:00,43.6,23.1,30.40,SW,234,6.0,8.0,44,0.00,,,0.00,686,Wunderground v.1.15,2013-03-28 20:04:00,
2013-03-28 15:05:00,43.6,23.1,30.40,SW,227,6.0,8.0,44,0.00,,,0.00,684,Wunderground v.1.15,2013-03-28 20:05:00,
2013-03-28 15:06:00,43.6,23.1,30.39,SW,225,6.0,8.0,44,0.00,,,0.00,682,Wunderground v.1.15,2013-03-28 20:06:00,
2013-03-28 15:10:00,43.4,22.4,30.39,SW,228,6.0,6.0,43,0.00,,,0.00,671,Wunderground v.1.15,2013-03-28 20:10:00,
2013-03-28 15:11:00,43.4,22.4,30.39,SW,229,6.0,6.0,43,0.00,,,0.00,670,Wunderground v.1.15,2013-03-28 20:11:00,
2013-03-28 15:12:00,43.4,21.8,30.39,SW,236,6.0,6.0,42,0.00,,,0.00,671,Wunderground v.1.15,2013-03-28 20:12:00,
2013-03-28 15:13:00,43.4,22.4,30.39,SW,222,6.0,6.0,43,0.00,,,0.00,671,Wunderground v.1.15,2013-03-28 20:13:00,
2013-03-28 15:16:00,43.5,22.5,30.39,WSW,250,6.0,9.0,43,0.00,,,0.00,670,Wunderground v.1.15,2013-03-28 20:16:00,
2013-03-28 15:17:00,43.7,23.2,30.39,SW,232,6.0,9.0,44,0.00,,,0.00,670,Wunderground v.1.15,2013-03-28 20:17:00,
2013-03-28 15:18:00,44.0,23.5,30.39,WSW,255,5.0,9.0,44,0.00,,,0.00,664,Wunderground v.1.15,2013-03-28 20:18:00,
2013-03-28 15:23:00,45.1,23.3,30.39,SW,223,4.0,6.0,42,0.00,,,0.00,649,Wunderground v.1.15,2013-03-28 20:23:00,
2013-03-28 15:25:00,44.9,23.2,30.39,SW,218,4.0,6.0,42,0.00,,,0.00,650,Wunderground v.1.15,2013-03-28 20:25:00,
2013-03-28 15:26:00,44.6,22.9,30.39,SW,236,4.0,6.0,42,0.00,,,0.00,635,Wunderground v.1.15,2013-03-28 20:26:00,
2013-03-28 15:29:00,44.1,23.0,30.39,SW,236,4.0,6.0,43,0.00,,,0.00,626,Wunderground v.1.15,2013-03-28 20:29:00,
2013-03-28 15:30:00,44.2,23.6,30.39,SW,232,4.0,4.0,44,0.00,,,0.00,628,Wunderground v.1.15,2013-03-28 20:30:00,
2013-03-28 15:32:00,44.3,22.6,30.39,SW,232,4.0,4.0,42,0.00,,,0.00,601,Wunderground v.1.15,2013-03-28 20:32:00,
2013-03-28 15:35:00,44.7,23.0,30.39,WSW,246,4.0,4.0,42,0.00,,,0.00,624,Wunderground v.1.15,2013-03-28 20:35:00,
2013-03-28 15:37:00,44.8,23.1,30.38,SW,234,3.0,4.0,42,0.00,,,0.00,612,Wunderground v.1.15,2013-03-28 20:37:00,
2013-03-28 15:38:00,44.9,23.7,30.38,West,273,2.0,4.0,43,0.00,,,0.00,612,Wunderground v.1.15,2013-03-28 20:38:00,
2013-03-28 15:40:00,44.9,23.7,30.38,SW,231,3.0,5.0,43,0.00,,,0.00,606,Wunderground v.1.15,2013-03-28 20:40:00,
2013-03-28 15:42:00,44.5,22.8,30.38,SW,236,3.0,5.0,42,0.00,,,0.00,603,Wunderground v.1.15,2013-03-28 20:42:00,
2013-03-28 15:47:00,44.2,22.5,30.38,SW,231,4.0,6.0,42,0.00,,,0.00,592,Wunderground v.1.15,2013-03-28 20:47:00,
2013-03-28 15:48:00,44.3,22.6,30.38,West,273,4.0,6.0,42,0.00,,,0.00,587,Wunderground v.1.15,2013-03-28 20:48:00,
2013-03-28 15:52:00,44.6,22.9,30.38,SW,233,4.0,5.0,42,0.00,,,0.00,578,Wunderground v.1.15,2013-03-28 20:52:00,
2013-03-28 15:53:00,44.4,22.1,30.38,SW,232,3.0,5.0,41,0.00,,,0.00,573,Wunderground v.1.15,2013-03-28 20:53:00,
2013-03-28 15:54:00,44.4,22.1,30.38,SW,217,3.0,5.0,41,0.00,,,0.00,571,Wunderground v.1.15,2013-03-28 20:54:00,
2013-03-28 15:55:00,44.3,22.1,30.38,SW,225,4.0,5.0,41,0.00,,,0.00,568,Wunderground v.1.15,2013-03-28 20:55:00,
2013-03-28 15:59:00,44.2,22.0,30.38,SW,230,4.0,5.0,41,0.00,,,0.00,557,Wunderground v.1.15,2013-03-28 20:59:00,
2013-03-28 16:01:00,44.2,22.0,30.38,WNW,297,4.0,4.0,41,0.00,,,0.00,552,Wunderground v.1.15,2013-03-28 21:01:00,
2013-03-28 16:02:00,44.5,22.2,30.38,WNW,286,4.0,4.0,41,0.00,,,0.00,552,Wunderground v.1.15,2013-03-28 21:02:00,
2013-03-28 16:03:00,44.6,21.7,30.38,WNW,286,4.0,4.0,40,0.00,,,0.00,550,Wunderground v.1.15,2013-03-28 21:03:00,
2013-03-28 16:08:00,44.2,21.4,30.38,SW,234,4.0,7.0,40,0.00,,,0.00,538,Wunderground v.1.15,2013-03-28 21:08:00,
2013-03-28 16:09:00,44.2,21.4,30.38,SW,225,4.0,7.0,40,0.00,,,0.00,534,Wunderground v.1.15,2013-03-28 21:09:00,
2013-03-28 16:10:00,44.2,21.4,30.38,SW,227,4.0,5.0,40,0.00,,,0.00,533,Wunderground v.1.15,2013-03-28 21:10:00,
2013-03-28 16:14:00,44.0,21.8,30.38,SW,229,5.0,7.0,41,0.00,,,0.00,519,Wunderground v.1.15,2013-03-28 21:14:00,
2013-03-28 16:16:00,44.2,22.0,30.38,SW,228,5.0,7.0,41,0.00,,,0.00,517,Wunderground v.1.15,2013-03-28 21:16:00,
2013-03-28 16:17:00,44.2,22.0,30.38,WSW,242,5.0,7.0,41,0.00,,,0.00,515,Wunderground v.1.15,2013-03-28 21:17:00,
2013-03-28 16:21:00,44.1,21.3,30.38,SW,227,4.0,5.0,40,0.00,,,0.00,501,Wunderground v.1.15,2013-03-28 21:21:00,
2013-03-28 16:22:00,44.0,21.2,30.38,WSW,237,4.0,5.0,40,0.00,,,0.00,499,Wunderground v.1.15,2013-03-28 21:22:00,
2013-03-28 16:23:00,44.3,21.5,30.38,WSW,237,4.0,5.0,40,0.00,,,0.00,496,Wunderground v.1.15,2013-03-28 21:23:00,
2013-03-28 16:24:00,44.5,21.6,30.38,WNW,299,4.0,5.0,40,0.00,,,0.00,494,Wunderground v.1.15,2013-03-28 21:24:00,
2013-03-28 16:28:00,45.1,22.2,30.38,West,261,3.0,5.0,40,0.00,,,0.00,482,Wunderground v.1.15,2013-03-28 21:28:00,
2013-03-28 16:30:00,45.2,21.1,30.38,West,260,3.0,3.0,38,0.00,,,0.00,471,Wunderground v.1.15,2013-03-28 21:30:00,
2013-03-28 16:31:00,45.6,22.0,30.38,West,260,3.0,3.0,39,0.00,,,0.00,466,Wunderground v.1.15,2013-03-28 21:31:00,
2013-03-28 16:33:00,45.4,21.2,30.38,WSW,251,2.0,6.0,38,0.00,,,0.00,468,Wunderground v.1.15,2013-03-28 21:33:00,
2013-03-28 16:34:00,45.4,21.2,30.38,WSW,249,2.0,6.0,38,0.00,,,0.00,466,Wunderground v.1.15,2013-03-28 21:34:00,
2013-03-28 16:35:00,45.2,21.1,30.38,WSW,249,2.0,6.0,38,0.00,,,0.00,461,Wunderground v.1.15,2013-03-28 21:35:00,
2013-03-28 16:37:00,45.1,21.0,30.37,WSW,248,2.0,6.0,38,0.00,,,0.00,455,Wunderground v.1.15,2013-03-28 21:37:00,
2013-03-28 16:39:00,44.9,20.8,30.37,SW,234,2.0,6.0,38,0.00,,,0.00,452,Wunderground v.1.15,2013-03-28 21:39:00,
2013-03-28 16:40:00,44.9,21.4,30.37,SW,233,2.0,4.0,39,0.00,,,0.00,448,Wunderground v.1.15,2013-03-28 21:40:00,
2013-03-28 16:43:00,44.5,21.0,30.37,SW,232,3.0,7.0,39,0.00,,,0.00,434,Wunderground v.1.15,2013-03-28 21:43:00,
2013-03-28 16:45:00,44.3,20.3,30.37,SW,231,4.0,7.0,38,0.00,,,0.00,427,Wunderground v.1.15,2013-03-28 21:45:00,
2013-03-28 16:49:00,44.3,20.9,30.37,WSW,238,4.0,7.0,39,0.00,,,0.00,415,Wunderground v.1.15,2013-03-28 21:49:00,
2013-03-28 16:51:00,44.9,21.4,30.37,WSW,238,4.0,4.0,39,0.00,,,0.00,359,Wunderground v.1.15,2013-03-28 21:51:00,
2013-03-28 16:52:00,45.0,20.9,30.37,WSW,238,4.0,5.0,38,0.00,,,0.00,373,Wunderground v.1.15,2013-03-28 21:52:00,
2013-03-28 16:54:00,44.7,20.6,30.37,SW,235,3.0,6.0,38,0.00,,,0.00,399,Wunderground v.1.15,2013-03-28 21:54:00,
2013-03-28 16:57:00,44.6,21.1,30.37,SW,236,3.0,6.0,39,0.00,,,0.00,401,Wunderground v.1.15,2013-03-28 21:57:00,
2013-03-28 16:58:00,44.7,21.2,30.37,SW,236,2.0,6.0,39,0.00,,,0.00,417,Wunderground v.1.15,2013-03-28 21:58:00,
2013-03-28 17:00:00,44.6,20.5,30.37,SW,235,2.0,4.0,38,0.00,,,0.00,350,Wunderground v.1.15,2013-03-28 22:00:00,
2013-03-28 17:03:00,44.1,20.1,30.37,WSW,238,3.0,4.0,38,0.00,,,0.00,239,Wunderground v.1.15,2013-03-28 22:03:00,
2013-03-28 17:04:00,44.0,20.0,30.37,WSW,238,3.0,4.0,38,0.00,,,0.00,239,Wunderground v.1.15,2013-03-28 22:04:00,
2013-03-28 17:07:00,43.8,19.8,30.37,WSW,238,3.0,4.0,38,0.00,,,0.00,188,Wunderground v.1.15,2013-03-28 22:07:00,
2013-03-28 17:10:00,43.9,20.5,30.37,WSW,238,3.0,3.0,39,0.00,,,0.00,179,Wunderground v.1.15,2013-03-28 22:10:00,
2013-03-28 17:13:00,43.9,21.1,30.37,WSW,238,2.0,3.0,40,0.00,,,0.00,171,Wunderground v.1.15,2013-03-28 22:13:00,
2013-03-28 17:16:00,43.9,21.1,30.37,WSW,238,1.0,3.0,40,0.00,,,0.00,155,Wunderground v.1.15,2013-03-28 22:16:00,
2013-03-28 17:19:00,43.9,21.1,30.37,WSW,238,0.0,3.0,40,0.00,,,0.00,156,Wunderground v.1.15,2013-03-28 22:19:00,
2013-03-28 17:22:00,43.9,21.7,30.37,WSW,238,0.0,1.0,41,0.00,,,0.00,162,Wunderground v.1.15,2013-03-28 22:22:00,
2013-03-28 17:24:00,43.9,21.1,30.37,WSW,238,0.0,1.0,40,0.00,,,0.00,167,Wunderground v.1.15,2013-03-28 22:24:00,
2013-03-28 17:26:00,43.8,21.0,30.37,WSW,238,0.0,1.0,40,0.00,,,0.00,169,Wunderground v.1.15,2013-03-28 22:26:00,
2013-03-28 17:28:00,43.8,21.0,30.37,WSW,238,0.0,1.0,40,0.00,,,0.00,162,Wunderground v.1.15,2013-03-28 22:28:00,
2013-03-28 17:29:00,43.8,20.4,30.37,WSW,238,0.0,1.0,39,0.00,,,0.00,160,Wunderground v.1.15,2013-03-28 22:29:00,
2013-03-28 17:34:00,43.8,20.4,30.37,WSW,238,0.0,1.0,39,0.00,,,0.00,149,Wunderground v.1.15,2013-03-28 22:34:00,
2013-03-28 17:35:00,43.7,20.3,30.37,WSW,238,0.0,1.0,39,0.00,,,0.00,149,Wunderground v.1.15,2013-03-28 22:35:00,
2013-03-28 17:37:00,43.7,20.3,30.37,WSW,238,0.0,1.0,39,0.00,,,0.00,137,Wunderground v.1.15,2013-03-28 22:37:00,
2013-03-28 17:40:00,43.5,20.2,30.37,WSW,238,1.0,1.0,39,0.00,,,0.00,134,Wunderground v.1.15,2013-03-28 22:40:00,
2013-03-28 17:42:00,43.4,20.1,30.37,WSW,238,1.0,1.0,39,0.00,,,0.00,130,Wunderground v.1.15,2013-03-28 22:42:00,
2013-03-28 17:44:00,43.5,20.7,30.37,WSW,238,1.0,1.0,40,0.00,,,0.00,142,Wunderground v.1.15,2013-03-28 22:44:00,
2013-03-28 17:45:00,43.5,20.7,30.37,WSW,238,1.0,1.0,40,0.00,,,0.00,125,Wunderground v.1.15,2013-03-28 22:45:00,
2013-03-28 17:47:00,43.7,20.9,30.37,WSW,238,1.0,1.0,40,0.00,,,0.00,141,Wunderground v.1.15,2013-03-28 22:47:00,
2013-03-28 17:51:00,43.9,21.1,30.37,WSW,238,0.0,1.0,40,0.00,,,0.00,135,Wunderground v.1.15,2013-03-28 22:51:00,
2013-03-28 17:52:00,43.9,21.1,30.37,WSW,238,0.0,1.0,40,0.00,,,0.00,128,Wunderground v.1.15,2013-03-28 22:52:00,
2013-03-28 17:54:00,44.0,21.2,30.37,WSW,238,0.0,1.0,40,0.00,,,0.00,132,Wunderground v.1.15,2013-03-28 22:54:00,
2013-03-28 17:55:00,44.0,21.2,30.37,WSW,238,0.0,1.0,40,0.00,,,0.00,135,Wunderground v.1.15,2013-03-28 22:55:00,
2013-03-28 17:59:00,43.6,20.2,30.37,WSW,238,0.0,1.0,39,0.00,,,0.00,128,Wunderground v.1.15,2013-03-28 22:59:00,
2013-03-28 18:02:00,43.5,20.2,30.37,WSW,238,0.0,1.0,39,0.00,,,0.00,148,Wunderground v.1.15,2013-03-28 23:02:00,
2013-03-28 18:05:00,43.4,20.1,30.37,WSW,238,1.0,2.0,39,0.00,,,0.00,179,Wunderground v.1.15,2013-03-28 23:05:00,
2013-03-28 18:06:00,43.5,20.2,30.37,WSW,238,1.0,2.0,39,0.00,,,0.00,179,Wunderground v.1.15,2013-03-28 23:06:00,
2013-03-28 18:07:00,43.6,20.2,30.37,WSW,238,1.0,2.0,39,0.00,,,0.00,167,Wunderground v.1.15,2013-03-28 23:07:00,
2013-03-28 18:09:00,43.7,20.9,30.37,WSW,238,1.0,2.0,40,0.00,,,0.00,153,Wunderground v.1.15,2013-03-28 23:09:00,
2013-03-28 18:11:00,43.8,20.4,30.37,WSW,238,2.0,3.0,39,0.00,,,0.00,109,Wunderground v.1.15,2013-03-28 23:11:00,
2013-03-28 18:16:00,43.6,20.2,30.37,WSW,238,2.0,3.0,39,0.00,,,0.00,123,Wunderground v.1.15,2013-03-28 23:16:00,
2013-03-28 18:17:00,43.6,19.6,30.37,WSW,238,2.0,3.0,38,0.00,,,0.00,132,Wunderground v.1.15,2013-03-28 23:17:00,
2013-03-28 18:18:00,43.6,19.6,30.37,WSW,238,2.0,3.0,38,0.00,,,0.00,105,Wunderground v.1.15,2013-03-28 23:18:00,
2013-03-28 18:22:00,43.6,19.6,30.37,WSW,238,1.0,2.0,38,0.00,,,0.00,93,Wunderground v.1.15,2013-03-28 23:22:00,
2013-03-28 18:23:00,43.6,19.6,30.37,WSW,238,1.0,2.0,38,0.00,,,0.00,100,Wunderground v.1.15,2013-03-28 23:23:00,
2013-03-28 18:25:00,43.6,19.6,30.37,WSW,238,1.0,2.0,38,0.00,,,0.00,74,Wunderground v.1.15,2013-03-28 23:25:00,
2013-03-28 18:27:00,43.5,19.5,30.37,WSW,238,1.0,2.0,38,0.00,,,0.00,67,Wunderground v.1.15,2013-03-28 23:27:00,
2013-03-28 18:30:00,43.6,20.8,30.37,WSW,238,1.0,1.0,40,0.00,,,0.00,67,Wunderground v.1.15,2013-03-28 23:30:00,
2013-03-28 18:32:00,43.6,20.2,30.37,WSW,238,0.0,1.0,39,0.00,,,0.00,60,Wunderground v.1.15,2013-03-28 23:32:00,
2013-03-28 18:33:00,43.6,20.2,30.37,WSW,238,0.0,1.0,39,0.00,,,0.00,58,Wunderground v.1.15,2013-03-28 23:33:00,
2013-03-28 18:35:00,43.6,20.2,30.37,WSW,238,0.0,1.0,39,0.00,,,0.00,54,Wunderground v.1.15,2013-03-28 23:35:00,
2013-03-28 18:39:00,43.4,20.1,30.37,WSW,238,0.0,1.0,39,0.00,,,0.00,47,Wunderground v.1.15,2013-03-28 23:39:00,
2013-03-28 18:43:00,43.2,20.5,30.37,WSW,238,0.0,0.0,40,0.00,,,0.00,42,Wunderground v.1.15,2013-03-28 23:43:00,
2013-03-28 18:44:00,43.2,20.5,30.37,WSW,238,0.0,0.0,40,0.00,,,0.00,40,Wunderground v.1.15,2013-03-28 23:44:00,
2013-03-28 18:46:00,43.1,20.4,30.37,WSW,238,0.0,0.0,40,0.00,,,0.00,37,Wunderground v.1.15,2013-03-28 23:46:00,
2013-03-28 18:49:00,42.6,22.2,30.37,WSW,238,0.0,0.0,44,0.00,,,0.00,33,Wunderground v.1.15,2013-03-28 23:49:00,
2013-03-28 18:52:00,42.2,21.8,30.37,WSW,238,0.0,0.0,44,0.00,,,0.00,30,Wunderground v.1.15,2013-03-28 23:52:00,
2013-03-28 18:54:00,42.0,21.6,30.37,WSW,238,0.0,0.0,44,0.00,,,0.00,28,Wunderground v.1.15,2013-03-28 23:54:00,
2013-03-28 18:55:00,41.9,22.6,30.38,WSW,238,0.0,0.0,46,0.00,,,0.00,26,Wunderground v.1.15,2013-03-28 23:55:00,
2013-03-28 19:00:00,41.6,22.3,30.38,WSW,238,0.0,0.0,46,0.00,,,0.00,23,Wunderground v.1.15,2013-03-29 00:00:00,
2013-03-28 19:01:00,41.5,23.2,30.38,WSW,238,0.0,0.0,48,0.00,,,0.00,21,Wunderground v.1.15,2013-03-29 00:01:00,
2013-03-28 19:06:00,40.8,25.4,30.38,WSW,238,0.0,0.0,54,0.00,,,0.00,18,Wunderground v.1.15,2013-03-29 00:06:00,
2013-03-28 19:07:00,40.7,25.3,30.38,WSW,238,0.0,0.0,54,0.00,,,0.00,16,Wunderground v.1.15,2013-03-29 00:07:00,
2013-03-28 19:08:00,40.5,25.1,30.38,WSW,238,0.0,0.0,54,0.00,,,0.00,16,Wunderground v.1.15,2013-03-29 00:08:00,
2013-03-28 19:11:00,40.4,25.5,30.38,WSW,238,0.0,0.0,55,0.00,,,0.00,12,Wunderground v.1.15,2013-03-29 00:11:00,
2013-03-28 19:13:00,39.9,25.0,30.38,WSW,238,0.0,0.0,55,0.00,,,0.00,11,Wunderground v.1.15,2013-03-29 00:13:00,
2013-03-28 19:16:00,39.3,24.9,30.38,WSW,238,0.0,0.0,56,0.00,,,0.00,9,Wunderground v.1.15,2013-03-29 00:16:00,
2013-03-28 19:18:00,38.9,25.4,30.38,WSW,238,0.0,0.0,58,0.00,,,0.00,7,Wunderground v.1.15,2013-03-29 00:18:00,
2013-03-28 19:19:00,38.8,25.7,30.38,WSW,238,0.0,0.0,59,0.00,,,0.00,7,Wunderground v.1.15,2013-03-29 00:19:00,
2013-03-28 19:23:00,38.2,26.7,30.38,WSW,238,0.0,0.0,63,0.00,,,0.00,5,Wunderground v.1.15,2013-03-29 00:23:00,
2013-03-28 19:27:00,37.7,26.6,30.38,WSW,238,0.0,0.0,64,0.00,,,0.00,0,Wunderground v.1.15,2013-03-29 00:27:00,
2013-03-28 19:28:00,37.6,26.5,30.38,WSW,238,0.0,1.0,64,0.00,,,0.00,0,Wunderground v.1.15,2013-03-29 00:28:00,
2013-03-28 19:31:00,37.4,25.9,30.38,WSW,238,0.0,1.0,63,0.00,,,0.00,0,Wunderground v.1.15,2013-03-29 00:31:00,
2013-03-28 19:32:00,37.3,25.8,30.38,WSW,238,0.0,1.0,63,0.00,,,0.00,0,Wunderground v.1.15,2013-03-29 00:32:00,
2013-03-28 19:33:00,37.2,25.8,30.38,WSW,238,0.0,1.0,63,0.00,,,0.00,0,Wunderground v.1.15,2013-03-29 00:33:00,
2013-03-28 19:34:00,37.1,25.7,30.38,WSW,238,0.0,1.0,63,0.00,,,0.00,0,Wunderground v.1.15,2013-03-29 00:34:00,
2013-03-28 19:40:00,37.0,25.9,30.38,WSW,238,0.0,0.0,64,0.00,,,0.00,0,Wunderground v.1.15,2013-03-29 00:40:00,
2013-03-28 19:42:00,37.0,25.6,30.38,WSW,238,0.0,0.0,63,0.00,,,0.00,0,Wunderground v.1.15,2013-03-29 00:42:00,
2013-03-28 19:43:00,36.9,25.5,30.38,WSW,238,0.0,0.0,63,0.00,,,0.00,0,Wunderground v.1.15,2013-03-29 00:43:00,
2013-03-28 19:47:00,36.5,26.2,30.38,WSW,238,0.0,0.0,66,0.00,,,0.00,0,Wunderground v.1.15,2013-03-29 00:47:00,
2013-03-28 19:48:00,36.3,26.4,30.38,WSW,238,0.0,0.0,67,0.00,,,0.00,0,Wunderground v.1.15,2013-03-29 00:48:00,
2013-03-28 19:49:00,36.1,26.2,30.38,WSW,238,0.0,0.0,67,0.00,,,0.00,0,Wunderground v.1.15,2013-03-29 00:49:00,
2013-03-28 19:53:00,35.5,26.0,30.38,WSW,238,0.0,0.0,68,0.00,,,0.00,0,Wunderground v.1.15,2013-03-29 00:53:00,
2013-03-28 19:54:00,35.4,26.2,30.38,WSW,238,0.0,0.0,69,0.00,,,0.00,0,Wunderground v.1.15,2013-03-29 00:54:00,
2013-03-28 19:56:00,35.2,26.4,30.38,WSW,238,0.0,0.0,70,0.00,,,0.00,0,Wunderground v.1.15,2013-03-29 00:56:00,
2013-03-28 19:58:00,35.0,26.5,30.38,WSW,238,0.0,0.0,71,0.00,,,0.00,0,Wunderground v.1.15,2013-03-29 00:58:00,
2013-03-28 20:00:00,34.8,26.4,30.38,WSW,238,0.0,0.0,71,0.00,,,0.00,0,Wunderground v.1.15,2013-03-29 01:00:00,
2013-03-28 20:04:00,34.3,25.9,30.38,WSW,238,0.0,0.0,71,0.00,,,0.00,0,Wunderground v.1.15,2013-03-29 01:04:00,
2013-03-28 20:05:00,34.2,25.8,30.38,WSW,238,0.0,0.0,71,0.00,,,0.00,0,Wunderground v.1.15,2013-03-29 01:05:00,
2013-03-28 20:09:00,34.0,25.9,30.38,WSW,238,0.0,0.0,72,0.00,,,0.00,0,Wunderground v.1.15,2013-03-29 01:09:00,
2013-03-28 20:10:00,34.0,25.9,30.38,WSW,238,0.0,0.0,72,0.00,,,0.00,0,Wunderground v.1.15,2013-03-29 01:10:00,
2013-03-28 20:14:00,34.1,26.3,30.38,WSW,238,0.0,0.0,73,0.00,,,0.00,0,Wunderground v.1.15,2013-03-29 01:14:00,
2013-03-28 20:16:00,34.0,26.3,30.38,WSW,238,0.0,0.0,73,0.00,,,0.00,0,Wunderground v.1.15,2013-03-29 01:16:00,
2013-03-28 20:18:00,33.9,26.2,30.39,WSW,238,0.0,0.0,73,0.00,,,0.00,0,Wunderground v.1.15,2013-03-29 01:18:00,
2013-03-28 20:19:00,33.8,26.1,30.39,WSW,238,0.0,0.0,73,0.00,,,0.00,0,Wunderground v.1.15,2013-03-29 01:19:00,
2013-03-28 20:21:00,33.7,26.0,30.39,WSW,238,0.0,0.0,73,0.00,,,0.00,0,Wunderground v.1.15,2013-03-29 01:21:00,
2013-03-28 20:24:00,33.5,25.8,30.39,WSW,238,0.0,0.0,73,0.00,,,0.00,0,Wunderground v.1.15,2013-03-29 01:24:00,
2013-03-28 20:25:00,33.4,25.7,30.39,WSW,238,0.0,0.0,73,0.00,,,0.00,0,Wunderground v.1.15,2013-03-29 01:25:00,
2013-03-28 20:27:00,33.3,25.9,30.39,WSW,238,0.0,0.0,74,0.00,,,0.00,0,Wunderground v.1.15,2013-03-29 01:27:00,
2013-03-28 20:29:00,33.3,25.6,30.39,WSW,238,0.0,0.0,73,0.00,,,0.00,0,Wunderground v.1.15,2013-03-29 01:29:00,
2013-03-28 20:31:00,33.2,25.8,30.39,WSW,238,0.0,0.0,74,0.00,,,0.00,0,Wunderground v.1.15,2013-03-29 01:31:00,
2013-03-28 20:34:00,33.0,25.6,30.39,WSW,238,0.0,0.0,74,0.00,,,0.00,0,Wunderground v.1.15,2013-03-29 01:34:00,
2013-03-28 20:38:00,32.9,25.2,30.39,WSW,238,0.0,0.0,73,0.00,,,0.00,0,Wunderground v.1.15,2013-03-29 01:38:00,
2013-03-28 20:40:00,32.8,25.1,30.39,WSW,238,0.0,0.0,73,0.00,,,0.00,0,Wunderground v.1.15,2013-03-29 01:40:00,
2013-03-28 20:41:00,32.8,25.1,30.39,WSW,238,0.0,0.0,73,0.00,,,0.00,0,Wunderground v.1.15,2013-03-29 01:41:00,
2013-03-28 20:42:00,32.8,25.1,30.39,WSW,238,0.0,0.0,73,0.00,,,0.00,0,Wunderground v.1.15,2013-03-29 01:42:00,
2013-03-28 20:47:00,32.5,25.1,30.39,WSW,238,0.0,0.0,74,0.00,,,0.00,0,Wunderground v.1.15,2013-03-29 01:47:00,
2013-03-28 20:48:00,32.4,25.4,30.39,WSW,238,0.0,0.0,75,0.00,,,0.00,0,Wunderground v.1.15,2013-03-29 01:48:00,
2013-03-28 20:49:00,32.3,25.3,30.39,WSW,238,0.0,0.0,75,0.00,,,0.00,0,Wunderground v.1.15,2013-03-29 01:49:00,
2013-03-28 20:51:00,32.1,25.4,30.39,WSW,238,0.0,0.0,76,0.00,,,0.00,0,Wunderground v.1.15,2013-03-29 01:51:00,
2013-03-28 20:54:00,31.8,25.1,30.39,WSW,238,0.0,0.0,76,0.00,,,0.00,0,Wunderground v.1.15,2013-03-29 01:54:00,
2013-03-28 20:56:00,31.7,25.3,30.39,WSW,238,0.0,0.0,77,0.00,,,0.00,0,Wunderground v.1.15,2013-03-29 01:56:00,
2013-03-28 20:57:00,31.7,25.3,30.39,WSW,238,0.0,0.0,77,0.00,,,0.00,0,Wunderground v.1.15,2013-03-29 01:57:00,
2013-03-28 21:01:00,31.6,25.5,30.39,WSW,238,0.0,0.0,78,0.00,,,0.00,0,Wunderground v.1.15,2013-03-29 02:01:00,
2013-03-28 21:02:00,31.6,25.2,30.39,WSW,238,0.0,0.0,77,0.00,,,0.00,0,Wunderground v.1.15,2013-03-29 02:02:00,
2013-03-28 21:05:00,31.7,25.3,30.40,WSW,238,0.0,0.0,77,0.00,,,0.00,0,Wunderground v.1.15,2013-03-29 02:05:00,
2013-03-28 21:06:00,31.7,25.3,30.40,WSW,238,0.0,0.0,77,0.00,,,0.00,0,Wunderground v.1.15,2013-03-29 02:06:00,
2013-03-28 21:07:00,31.7,25.3,30.40,WSW,238,0.0,0.0,77,0.00,,,0.00,0,Wunderground v.1.15,2013-03-29 02:07:00,
2013-03-28 21:11:00,31.6,25.2,30.40,WSW,238,0.0,0.0,77,0.00,,,0.00,0,Wunderground v.1.15,2013-03-29 02:11:00,
2013-03-28 21:13:00,31.3,25.2,30.40,WSW,238,0.0,0.0,78,0.00,,,0.00,0,Wunderground v.1.15,2013-03-29 02:13:00,
2013-03-28 21:14:00,31.3,25.2,30.40,WSW,238,0.0,0.0,78,0.00,,,0.00,0,Wunderground v.1.15,2013-03-29 02:14:00,
2013-03-28 21:15:00,31.2,25.1,30.40,WSW,238,0.0,0.0,78,0.00,,,0.00,0,Wunderground v.1.15,2013-03-29 02:15:00,
2013-03-28 21:17:00,31.1,25.0,30.40,WSW,238,0.0,0.0,78,0.00,,,0.00,0,Wunderground v.1.15,2013-03-29 02:17:00,
2013-03-28 21:20:00,30.8,24.4,30.40,WSW,238,0.0,0.0,77,0.00,,,0.00,0,Wunderground v.1.15,2013-03-29 02:20:00,
2013-03-28 21:22:00,30.7,24.0,30.40,WSW,238,0.0,0.0,76,0.00,,,0.00,0,Wunderground v.1.15,2013-03-29 02:22:00,
2013-03-28 21:24:00,30.7,24.0,30.40,WSW,238,0.0,0.0,76,0.00,,,0.00,0,Wunderground v.1.15,2013-03-29 02:24:00,
2013-03-28 21:27:00,30.6,23.9,30.40,WSW,238,0.0,0.0,76,0.00,,,0.00,0,Wunderground v.1.15,2013-03-29 02:27:00,
2013-03-28 21:29:00,30.4,23.7,30.40,WSW,238,0.0,0.0,76,0.00,,,0.00,0,Wunderground v.1.15,2013-03-29 02:29:00,
2013-03-28 21:30:00,30.3,23.6,30.40,WSW,238,0.0,0.0,76,0.00,,,0.00,0,Wunderground v.1.15,2013-03-29 02:30:00,
2013-03-28 21:31:00,30.2,23.5,30.40,WSW,238,0.0,0.0,76,0.00,,,0.00,0,Wunderground v.1.15,2013-03-29 02:31:00,
2013-03-28 21:36:00,30.3,24.3,30.40,WSW,238,0.0,0.0,78,0.00,,,0.00,0,Wunderground v.1.15,2013-03-29 02:36:00,
2013-03-28 21:37:00,30.2,24.2,30.40,WSW,238,0.0,0.0,78,0.00,,,0.00,0,Wunderground v.1.15,2013-03-29 02:37:00,
2013-03-28 21:38:00,30.2,24.2,30.41,WSW,238,0.0,0.0,78,0.00,,,0.00,0,Wunderground v.1.15,2013-03-29 02:38:00,
2013-03-28 21:40:00,30.1,24.4,30.41,WSW,238,0.0,0.0,79,0.00,,,0.00,0,Wunderground v.1.15,2013-03-29 02:40:00,
2013-03-28 21:43:00,29.9,24.2,30.41,WSW,238,0.0,0.0,79,0.00,,,0.00,0,Wunderground v.1.15,2013-03-29 02:43:00,
2013-03-28 21:44:00,29.8,24.1,30.41,WSW,238,0.0,0.0,79,0.00,,,0.00,0,Wunderground v.1.15,2013-03-29 02:44:00,
2013-03-28 21:46:00,29.7,24.3,30.41,WSW,238,0.0,0.0,80,0.00,,,0.00,0,Wunderground v.1.15,2013-03-29 02:46:00,
2013-03-28 21:48:00,29.6,24.2,30.41,WSW,238,0.0,0.0,80,0.00,,,0.00,0,Wunderground v.1.15,2013-03-29 02:48:00,
2013-03-28 21:51:00,29.6,24.5,30.41,WSW,238,0.0,0.0,81,0.00,,,0.00,0,Wunderground v.1.15,2013-03-29 02:51:00,
2013-03-28 21:57:00,29.4,24.3,30.41,WSW,238,0.0,0.0,81,0.00,,,0.00,0,Wunderground v.1.15,2013-03-29 02:57:00,
2013-03-28 21:59:00,29.4,24.3,30.41,WSW,238,0.0,0.0,81,0.00,,,0.00,0,Wunderground v.1.15,2013-03-29 02:59:00,
2013-03-28 22:01:00,29.4,24.3,30.41,WSW,238,0.0,0.0,81,0.00,,,0.00,0,Wunderground v.1.15,2013-03-29 03:01:00,
2013-03-28 22:03:00,29.3,24.2,30.41,WSW,238,0.0,0.0,81,0.00,,,0.00,0,Wunderground v.1.15,2013-03-29 03:03:00,
2013-03-28 22:07:00,29.1,24.3,30.41,WSW,238,0.0,0.0,82,0.00,,,0.00,0,Wunderground v.1.15,2013-03-29 03:07:00,
2013-03-28 22:08:00,29.0,24.2,30.41,WSW,238,0.0,0.0,82,0.00,,,0.00,0,Wunderground v.1.15,2013-03-29 03:08:00,
2013-03-28 22:10:00,28.8,24.0,30.41,WSW,238,0.0,0.0,82,0.00,,,0.00,0,Wunderground v.1.15,2013-03-29 03:10:00,
2013-03-28 22:12:00,28.7,23.9,30.41,WSW,238,0.0,0.0,82,0.00,,,0.00,0,Wunderground v.1.15,2013-03-29 03:12:00,
2013-03-28 22:15:00,28.5,24.0,30.41,WSW,238,0.0,0.0,83,0.00,,,0.00,0,Wunderground v.1.15,2013-03-29 03:15:00,
2013-03-28 22:16:00,28.5,24.0,30.41,WSW,238,0.0,0.0,83,0.00,,,0.00,0,Wunderground v.1.15,2013-03-29 03:16:00,
2013-03-28 22:17:00,28.5,24.0,30.41,WSW,238,0.0,0.0,83,0.00,,,0.00,0,Wunderground v.1.15,2013-03-29 03:17:00,
2013-03-28 22:18:00,28.5,24.0,30.40,WSW,238,0.0,0.0,83,0.00,,,0.00,0,Wunderground v.1.15,2013-03-29 03:18:00,
2013-03-28 22:22:00,28.4,24.2,30.40,WSW,238,0.0,0.0,84,0.00,,,0.00,0,Wunderground v.1.15,2013-03-29 03:22:00,
2013-03-28 22:24:00,28.4,24.2,30.40,WSW,238,0.0,0.0,84,0.00,,,0.00,0,Wunderground v.1.15,2013-03-29 03:24:00,
2013-03-28 22:25:00,28.3,24.1,30.40,WSW,238,0.0,0.0,84,0.00,,,0.00,0,Wunderground v.1.15,2013-03-29 03:25:00,
2013-03-28 22:28:00,28.3,24.1,30.40,WSW,238,0.0,0.0,84,0.00,,,0.00,0,Wunderground v.1.15,2013-03-29 03:28:00,
2013-03-28 22:30:00,28.2,24.0,30.41,WSW,238,0.0,0.0,84,0.00,,,0.00,0,Wunderground v.1.15,2013-03-29 03:30:00,
2013-03-28 22:32:00,28.1,23.9,30.41,WSW,238,0.0,0.0,84,0.00,,,0.00,0,Wunderground v.1.15,2013-03-29 03:32:00,
2013-03-28 22:35:00,27.9,23.7,30.40,WSW,238,0.0,0.0,84,0.00,,,0.00,0,Wunderground v.1.15,2013-03-29 03:35:00,
2013-03-28 22:36:00,27.8,23.6,30.41,WSW,238,0.0,0.0,84,0.00,,,0.00,0,Wunderground v.1.15,2013-03-29 03:36:00,
2013-03-28 22:38:00,27.8,23.6,30.41,WSW,238,0.0,0.0,84,0.00,,,0.00,0,Wunderground v.1.15,2013-03-29 03:38:00,
2013-03-28 22:42:00,27.8,23.6,30.41,WSW,238,0.0,0.0,84,0.00,,,0.00,0,Wunderground v.1.15,2013-03-29 03:42:00,
2013-03-28 22:43:00,27.7,23.5,30.41,WSW,238,0.0,0.0,84,0.00,,,0.00,0,Wunderground v.1.15,2013-03-29 03:43:00,
2013-03-28 22:44:00,27.7,23.5,30.41,WSW,238,0.0,0.0,84,0.00,,,0.00,0,Wunderground v.1.15,2013-03-29 03:44:00,
2013-03-28 22:48:00,27.5,23.6,30.40,WSW,238,0.0,0.0,85,0.00,,,0.00,0,Wunderground v.1.15,2013-03-29 03:48:00,
2013-03-28 22:50:00,27.4,23.5,30.40,WSW,238,0.0,0.0,85,0.00,,,0.00,0,Wunderground v.1.15,2013-03-29 03:50:00,
2013-03-28 22:52:00,27.3,23.4,30.40,WSW,238,0.0,0.0,85,0.00,,,0.00,0,Wunderground v.1.15,2013-03-29 03:52:00,
2013-03-28 22:56:00,27.2,23.6,30.40,WSW,238,0.0,0.0,86,0.00,,,0.00,0,Wunderground v.1.15,2013-03-29 03:56:00,
2013-03-28 22:59:00,27.1,23.5,30.40,WSW,238,0.0,0.0,86,0.00,,,0.00,0,Wunderground v.1.15,2013-03-29 03:59:00,
2013-03-28 23:00:00,27.1,23.5,30.40,WSW,238,0.0,0.0,86,0.00,,,0.00,0,Wunderground v.1.15,2013-03-29 04:00:00,
2013-03-28 23:02:00,27.0,23.4,30.40,WSW,238,0.0,0.0,86,0.00,,,0.00,0,Wunderground v.1.15,2013-03-29 04:02:00,
2013-03-28 23:03:00,27.1,23.5,30.40,WSW,238,0.0,0.0,86,0.00,,,0.00,0,Wunderground v.1.15,2013-03-29 04:03:00,
2013-03-28 23:05:00,27.0,23.4,30.40,WSW,238,0.0,0.0,86,0.00,,,0.00,0,Wunderground v.1.15,2013-03-29 04:05:00,
2013-03-28 23:06:00,27.0,23.4,30.40,WSW,238,0.0,0.0,86,0.00,,,0.00,0,Wunderground v.1.15,2013-03-29 04:06:00,
2013-03-28 23:11:00,26.9,23.3,30.40,WSW,238,0.0,0.0,86,0.00,,,0.00,0,Wunderground v.1.15,2013-03-29 04:11:00,
2013-03-28 23:12:00,26.9,23.3,30.40,WSW,238,0.0,0.0,86,0.00,,,0.00,0,Wunderground v.1.15,2013-03-29 04:12:00,
2013-03-28 23:17:00,26.7,23.1,30.40,WSW,238,0.0,0.0,86,0.00,,,0.00,0,Wunderground v.1.15,2013-03-29 04:17:00,
2013-03-28 23:19:00,26.6,23.0,30.40,WSW,238,0.0,0.0,86,0.00,,,0.00,0,Wunderground v.1.15,2013-03-29 04:19:00,
2013-03-28 23:20:00,26.6,23.3,30.40,WSW,238,0.0,0.0,87,0.00,,,0.00,0,Wunderground v.1.15,2013-03-29 04:20:00,
2013-03-28 23:22:00,26.6,23.3,30.40,WSW,238,0.0,0.0,87,0.00,,,0.00,0,Wunderground v.1.15,2013-03-29 04:22:00,
2013-03-28 23:24:00,26.6,23.3,30.40,WSW,238,0.0,0.0,87,0.00,,,0.00,0,Wunderground v.1.15,2013-03-29 04:24:00,
2013-03-28 23:25:00,26.6,23.3,30.40,WSW,238,0.0,0.0,87,0.00,,,0.00,0,Wunderground v.1.15,2013-03-29 04:25:00,
2013-03-28 23:26:00,26.6,23.0,30.40,WSW,238,0.0,0.0,86,0.00,,,0.00,0,Wunderground v.1.15,2013-03-29 04:26:00,
2013-03-28 23:28:00,26.5,22.9,30.40,WSW,238,0.0,0.0,86,0.00,,,0.00,0,Wunderground v.1.15,2013-03-29 04:28:00,
2013-03-28 23:32:00,26.5,22.9,30.40,WSW,238,0.0,0.0,86,0.00,,,0.00,0,Wunderground v.1.15,2013-03-29 04:32:00,
2013-03-28 23:33:00,26.5,22.9,30.40,WSW,238,0.0,0.0,86,0.00,,,0.00,0,Wunderground v.1.15,2013-03-29 04:33:00,
2013-03-28 23:34:00,26.5,22.9,30.40,WSW,238,0.0,0.0,86,0.00,,,0.00,0,Wunderground v.1.15,2013-03-29 04:34:00,
2013-03-28 23:38:00,26.4,22.8,30.40,WSW,238,0.0,0.0,86,0.00,,,0.00,0,Wunderground v.1.15,2013-03-29 04:38:00,
2013-03-28 23:39:00,26.4,22.8,30.40,WSW,238,0.0,0.0,86,0.00,,,0.00,0,Wunderground v.1.15,2013-03-29 04:39:00,
2013-03-28 23:40:00,26.3,22.7,30.40,WSW,238,0.0,0.0,86,0.00,,,0.00,0,Wunderground v.1.15,2013-03-29 04:40:00,
2013-03-28 23:42:00,26.3,23.0,30.40,WSW,238,0.0,0.0,87,0.00,,,0.00,0,Wunderground v.1.15,2013-03-29 04:42:00,
2013-03-28 23:46:00,25.9,22.3,30.40,WSW,238,0.0,0.0,86,0.00,,,0.00,0,Wunderground v.1.15,2013-03-29 04:46:00,
2013-03-28 23:47:00,25.8,22.5,30.40,WSW,238,0.0,0.0,87,0.00,,,0.00,0,Wunderground v.1.15,2013-03-29 04:47:00,
2013-03-28 23:49:00,25.7,22.4,30.40,WSW,238,0.0,0.0,87,0.00,,,0.00,0,Wunderground v.1.15,2013-03-29 04:49:00,
2013-03-28 23:52:00,25.7,22.4,30.40,WSW,238,0.0,0.0,87,0.00,,,0.00,0,Wunderground v.1.15,2013-03-29 04:52:00,
2013-03-28 23:53:00,25.8,22.5,30.40,WSW,238,0.0,0.0,87,0.00,,,0.00,0,Wunderground v.1.15,2013-03-29 04:53:00,
2013-03-28 23:57:00,25.8,22.5,30.40,WSW,238,0.0,0.0,87,0.00,,,0.00,0,Wunderground v.1.15,2013-03-29 04:57:00,
2013-03-28 23:58:00,25.8,22.5,30.40,WSW,238,0.0,0.0,87,0.00,,,0.00,0,Wunderground v.1.15,2013-03-29 04:58:00,